<?xml version="1.0" encoding="UTF-8" standalone="no" ?>
<gpx xmlns="http://www.topografix.com/GPX/1/1" xmlns:xsi="http://www.w3.org/2001/XMLSchema-instance" xsi:schemaLocation="http://www.topografix.com/GPX/1/1 http://www.topografix.com/GPX/1/1/gpx.xsd" version="1.1" creator="VisuGPX - https://www.visugpx.com">
  <metadata>
    <name>Le Vieux Laborel</name>
    <desc><![CDATA[Faite en groupe le jeudi 30 septembre 2021.
Peut être décalé le départ à Laborel ou col de Pierre Vesque]]></desc>
  </metadata>
  <trk>
    <name><![CDATA[2021-09-30 16:27:08]]></name>
    <extensions>
      <line xmlns="http://www.topografix.com/GPX/gpx_style/0/2">
        <color>0000FF</color>
        <width>4</width>
      </line>
    </extensions>
    <trkseg>
      <trkpt lat="44.29279" lon="5.55475">
        <ele>1237.7</ele>
        <time>2021-09-30T07:02:56Z</time>
      </trkpt>
      <trkpt lat="44.2928" lon="5.55475">
        <ele>1237.6</ele>
        <time>2021-09-30T07:02:58Z</time>
      </trkpt>
      <trkpt lat="44.29282" lon="5.55474">
        <ele>1237.5</ele>
        <time>2021-09-30T07:03:00Z</time>
      </trkpt>
      <trkpt lat="44.29283" lon="5.55474">
        <ele>1237.4</ele>
        <time>2021-09-30T07:03:02Z</time>
      </trkpt>
      <trkpt lat="44.29304" lon="5.55457">
        <ele>1238.8</ele>
        <time>2021-09-30T07:03:29Z</time>
      </trkpt>
      <trkpt lat="44.29328" lon="5.55432">
        <ele>1244.3</ele>
        <time>2021-09-30T07:03:55Z</time>
      </trkpt>
      <trkpt lat="44.29337" lon="5.55418">
        <ele>1247</ele>
        <time>2021-09-30T07:04:07Z</time>
      </trkpt>
      <trkpt lat="44.29356" lon="5.55401">
        <ele>1241</ele>
        <time>2021-09-30T07:04:25Z</time>
      </trkpt>
      <trkpt lat="44.29364" lon="5.55386">
        <ele>1239.3</ele>
        <time>2021-09-30T07:04:36Z</time>
      </trkpt>
      <trkpt lat="44.29366" lon="5.55361">
        <ele>1241.3</ele>
        <time>2021-09-30T07:04:54Z</time>
      </trkpt>
      <trkpt lat="44.29365" lon="5.55329">
        <ele>1245.6</ele>
        <time>2021-09-30T07:05:15Z</time>
      </trkpt>
      <trkpt lat="44.29385" lon="5.55281">
        <ele>1246.1</ele>
        <time>2021-09-30T07:05:46Z</time>
      </trkpt>
      <trkpt lat="44.29401" lon="5.55262">
        <ele>1244.8</ele>
        <time>2021-09-30T07:06:09Z</time>
      </trkpt>
      <trkpt lat="44.29424" lon="5.55233">
        <ele>1247.1</ele>
        <time>2021-09-30T07:06:37Z</time>
      </trkpt>
      <trkpt lat="44.29428" lon="5.5523">
        <ele>1247.4</ele>
        <time>2021-09-30T07:06:42Z</time>
      </trkpt>
      <trkpt lat="44.29456" lon="5.55219">
        <ele>1246.5</ele>
        <time>2021-09-30T07:07:05Z</time>
      </trkpt>
      <trkpt lat="44.2948" lon="5.55228">
        <ele>1239.5</ele>
        <time>2021-09-30T07:07:26Z</time>
      </trkpt>
      <trkpt lat="44.29492" lon="5.5523">
        <ele>1236.8</ele>
        <time>2021-09-30T07:07:36Z</time>
      </trkpt>
      <trkpt lat="44.29507" lon="5.55231">
        <ele>1233.8</ele>
        <time>2021-09-30T07:07:48Z</time>
      </trkpt>
      <trkpt lat="44.29525" lon="5.55237">
        <ele>1228.8</ele>
        <time>2021-09-30T07:08:05Z</time>
      </trkpt>
      <trkpt lat="44.29531" lon="5.55241">
        <ele>1226.6</ele>
        <time>2021-09-30T07:08:20Z</time>
      </trkpt>
      <trkpt lat="44.29532" lon="5.55241">
        <ele>1226.5</ele>
        <time>2021-09-30T07:08:22Z</time>
      </trkpt>
      <trkpt lat="44.2955" lon="5.55241">
        <ele>1223.7</ele>
        <time>2021-09-30T07:08:41Z</time>
      </trkpt>
      <trkpt lat="44.29554" lon="5.55236">
        <ele>1224.3</ele>
        <time>2021-09-30T07:08:47Z</time>
      </trkpt>
      <trkpt lat="44.29563" lon="5.5521">
        <ele>1228.8</ele>
        <time>2021-09-30T07:09:04Z</time>
      </trkpt>
      <trkpt lat="44.29569" lon="5.55178">
        <ele>1234.2</ele>
        <time>2021-09-30T07:09:27Z</time>
      </trkpt>
      <trkpt lat="44.29581" lon="5.55149">
        <ele>1239.3</ele>
        <time>2021-09-30T07:09:54Z</time>
      </trkpt>
      <trkpt lat="44.29595" lon="5.55143">
        <ele>1237.9</ele>
        <time>2021-09-30T07:10:09Z</time>
      </trkpt>
      <trkpt lat="44.29622" lon="5.55148">
        <ele>1229.6</ele>
        <time>2021-09-30T07:10:30Z</time>
      </trkpt>
      <trkpt lat="44.29631" lon="5.55149">
        <ele>1227.1</ele>
        <time>2021-09-30T07:10:38Z</time>
      </trkpt>
      <trkpt lat="44.29648" lon="5.55149">
        <ele>1223</ele>
        <time>2021-09-30T07:10:52Z</time>
      </trkpt>
      <trkpt lat="44.29664" lon="5.5515">
        <ele>1218.8</ele>
        <time>2021-09-30T07:11:07Z</time>
      </trkpt>
      <trkpt lat="44.2968" lon="5.55123">
        <ele>1224.4</ele>
        <time>2021-09-30T07:11:32Z</time>
      </trkpt>
      <trkpt lat="44.2969" lon="5.55101">
        <ele>1229.9</ele>
        <time>2021-09-30T07:11:49Z</time>
      </trkpt>
      <trkpt lat="44.29693" lon="5.55079">
        <ele>1236.6</ele>
        <time>2021-09-30T07:12:05Z</time>
      </trkpt>
      <trkpt lat="44.29714" lon="5.5506">
        <ele>1240.5</ele>
        <time>2021-09-30T07:12:29Z</time>
      </trkpt>
      <trkpt lat="44.29741" lon="5.55075">
        <ele>1231.5</ele>
        <time>2021-09-30T07:12:51Z</time>
      </trkpt>
      <trkpt lat="44.29753" lon="5.55079">
        <ele>1228.9</ele>
        <time>2021-09-30T07:13:01Z</time>
      </trkpt>
      <trkpt lat="44.29773" lon="5.55082">
        <ele>1228.9</ele>
        <time>2021-09-30T07:13:21Z</time>
      </trkpt>
      <trkpt lat="44.29778" lon="5.55083">
        <ele>1228.8</ele>
        <time>2021-09-30T07:13:25Z</time>
      </trkpt>
      <trkpt lat="44.29793" lon="5.55086">
        <ele>1228.8</ele>
        <time>2021-09-30T07:13:41Z</time>
      </trkpt>
      <trkpt lat="44.2982" lon="5.5507">
        <ele>1235.8</ele>
        <time>2021-09-30T07:14:07Z</time>
      </trkpt>
      <trkpt lat="44.29847" lon="5.55078">
        <ele>1234.4</ele>
        <time>2021-09-30T07:14:33Z</time>
      </trkpt>
      <trkpt lat="44.29848" lon="5.55079">
        <ele>1234.1</ele>
        <time>2021-09-30T07:14:34Z</time>
      </trkpt>
      <trkpt lat="44.29858" lon="5.55102">
        <ele>1230.5</ele>
        <time>2021-09-30T07:14:52Z</time>
      </trkpt>
      <trkpt lat="44.29861" lon="5.55125">
        <ele>1227.3</ele>
        <time>2021-09-30T07:15:10Z</time>
      </trkpt>
      <trkpt lat="44.29858" lon="5.55147">
        <ele>1223.3</ele>
        <time>2021-09-30T07:15:28Z</time>
      </trkpt>
      <trkpt lat="44.29859" lon="5.55155">
        <ele>1222.3</ele>
        <time>2021-09-30T07:15:34Z</time>
      </trkpt>
      <trkpt lat="44.29858" lon="5.55178">
        <ele>1218.4</ele>
        <time>2021-09-30T07:15:50Z</time>
      </trkpt>
      <trkpt lat="44.29864" lon="5.55198">
        <ele>1216.9</ele>
        <time>2021-09-30T07:16:08Z</time>
      </trkpt>
      <trkpt lat="44.29866" lon="5.5522">
        <ele>1214.1</ele>
        <time>2021-09-30T07:16:25Z</time>
      </trkpt>
      <trkpt lat="44.29874" lon="5.55259">
        <ele>1210</ele>
        <time>2021-09-30T07:16:50Z</time>
      </trkpt>
      <trkpt lat="44.29878" lon="5.55295">
        <ele>1202.6</ele>
        <time>2021-09-30T07:17:15Z</time>
      </trkpt>
      <trkpt lat="44.29878" lon="5.55304">
        <ele>1200.4</ele>
        <time>2021-09-30T07:17:20Z</time>
      </trkpt>
      <trkpt lat="44.29879" lon="5.55309">
        <ele>1199.4</ele>
        <time>2021-09-30T07:17:23Z</time>
      </trkpt>
      <trkpt lat="44.2988" lon="5.55313">
        <ele>1198.7</ele>
        <time>2021-09-30T07:17:26Z</time>
      </trkpt>
      <trkpt lat="44.29891" lon="5.55336">
        <ele>1195.8</ele>
        <time>2021-09-30T07:17:43Z</time>
      </trkpt>
      <trkpt lat="44.29905" lon="5.55331">
        <ele>1200.7</ele>
        <time>2021-09-30T07:18:00Z</time>
      </trkpt>
      <trkpt lat="44.29926" lon="5.55329">
        <ele>1204.4</ele>
        <time>2021-09-30T07:18:23Z</time>
      </trkpt>
      <trkpt lat="44.29935" lon="5.55318">
        <ele>1207.2</ele>
        <time>2021-09-30T07:18:32Z</time>
      </trkpt>
      <trkpt lat="44.29956" lon="5.55303">
        <ele>1210</ele>
        <time>2021-09-30T07:18:52Z</time>
      </trkpt>
      <trkpt lat="44.29979" lon="5.55295">
        <ele>1210.3</ele>
        <time>2021-09-30T07:19:18Z</time>
      </trkpt>
      <trkpt lat="44.29988" lon="5.55293">
        <ele>1210.1</ele>
        <time>2021-09-30T07:19:48Z</time>
      </trkpt>
      <trkpt lat="44.30003" lon="5.55279">
        <ele>1211.3</ele>
        <time>2021-09-30T07:20:16Z</time>
      </trkpt>
      <trkpt lat="44.30013" lon="5.55268">
        <ele>1214.1</ele>
        <time>2021-09-30T07:20:35Z</time>
      </trkpt>
      <trkpt lat="44.30011" lon="5.55261">
        <ele>1214</ele>
        <time>2021-09-30T07:21:03Z</time>
      </trkpt>
      <trkpt lat="44.30012" lon="5.55265">
        <ele>1214</ele>
        <time>2021-09-30T07:21:47Z</time>
      </trkpt>
      <trkpt lat="44.30017" lon="5.55263">
        <ele>1215</ele>
        <time>2021-09-30T07:22:51Z</time>
      </trkpt>
      <trkpt lat="44.30029" lon="5.55247">
        <ele>1216.4</ele>
        <time>2021-09-30T07:23:18Z</time>
      </trkpt>
      <trkpt lat="44.30047" lon="5.5523">
        <ele>1215.1</ele>
        <time>2021-09-30T07:23:41Z</time>
      </trkpt>
      <trkpt lat="44.30064" lon="5.55221">
        <ele>1214</ele>
        <time>2021-09-30T07:24:00Z</time>
      </trkpt>
      <trkpt lat="44.30082" lon="5.55196">
        <ele>1207.2</ele>
        <time>2021-09-30T07:24:24Z</time>
      </trkpt>
      <trkpt lat="44.30102" lon="5.55176">
        <ele>1199</ele>
        <time>2021-09-30T07:24:48Z</time>
      </trkpt>
      <trkpt lat="44.30121" lon="5.55159">
        <ele>1190.7</ele>
        <time>2021-09-30T07:25:09Z</time>
      </trkpt>
      <trkpt lat="44.30139" lon="5.55149">
        <ele>1184.5</ele>
        <time>2021-09-30T07:25:31Z</time>
      </trkpt>
      <trkpt lat="44.30159" lon="5.55164">
        <ele>1187.8</ele>
        <time>2021-09-30T07:25:56Z</time>
      </trkpt>
      <trkpt lat="44.30181" lon="5.5518">
        <ele>1187.5</ele>
        <time>2021-09-30T07:26:21Z</time>
      </trkpt>
      <trkpt lat="44.30201" lon="5.55203">
        <ele>1188.4</ele>
        <time>2021-09-30T07:26:46Z</time>
      </trkpt>
      <trkpt lat="44.30215" lon="5.55222">
        <ele>1190</ele>
        <time>2021-09-30T07:27:05Z</time>
      </trkpt>
      <trkpt lat="44.30234" lon="5.55245">
        <ele>1190.7</ele>
        <time>2021-09-30T07:27:28Z</time>
      </trkpt>
      <trkpt lat="44.30252" lon="5.55261">
        <ele>1188.3</ele>
        <time>2021-09-30T07:27:50Z</time>
      </trkpt>
      <trkpt lat="44.30274" lon="5.55276">
        <ele>1182.6</ele>
        <time>2021-09-30T07:28:12Z</time>
      </trkpt>
      <trkpt lat="44.30299" lon="5.55291">
        <ele>1175.1</ele>
        <time>2021-09-30T07:28:36Z</time>
      </trkpt>
      <trkpt lat="44.30312" lon="5.55292">
        <ele>1168.5</ele>
        <time>2021-09-30T07:29:12Z</time>
      </trkpt>
      <trkpt lat="44.30323" lon="5.55303">
        <ele>1166.6</ele>
        <time>2021-09-30T07:29:41Z</time>
      </trkpt>
      <trkpt lat="44.30331" lon="5.55322">
        <ele>1169.2</ele>
        <time>2021-09-30T07:29:59Z</time>
      </trkpt>
      <trkpt lat="44.30345" lon="5.55348">
        <ele>1167.3</ele>
        <time>2021-09-30T07:30:21Z</time>
      </trkpt>
      <trkpt lat="44.30354" lon="5.55382">
        <ele>1166.3</ele>
        <time>2021-09-30T07:30:47Z</time>
      </trkpt>
      <trkpt lat="44.30357" lon="5.55411">
        <ele>1168</ele>
        <time>2021-09-30T07:31:07Z</time>
      </trkpt>
      <trkpt lat="44.30357" lon="5.55443">
        <ele>1168.2</ele>
        <time>2021-09-30T07:31:29Z</time>
      </trkpt>
      <trkpt lat="44.30358" lon="5.55479">
        <ele>1166.8</ele>
        <time>2021-09-30T07:31:55Z</time>
      </trkpt>
      <trkpt lat="44.30355" lon="5.55506">
        <ele>1168.5</ele>
        <time>2021-09-30T07:32:16Z</time>
      </trkpt>
      <trkpt lat="44.30359" lon="5.55544">
        <ele>1165</ele>
        <time>2021-09-30T07:32:44Z</time>
      </trkpt>
      <trkpt lat="44.30359" lon="5.55578">
        <ele>1164.5</ele>
        <time>2021-09-30T07:33:09Z</time>
      </trkpt>
      <trkpt lat="44.30362" lon="5.55598">
        <ele>1163</ele>
        <time>2021-09-30T07:33:26Z</time>
      </trkpt>
      <trkpt lat="44.30362" lon="5.55617">
        <ele>1163.9</ele>
        <time>2021-09-30T07:33:57Z</time>
      </trkpt>
      <trkpt lat="44.30365" lon="5.55643">
        <ele>1162.8</ele>
        <time>2021-09-30T07:34:23Z</time>
      </trkpt>
      <trkpt lat="44.30369" lon="5.55659">
        <ele>1160.6</ele>
        <time>2021-09-30T07:34:47Z</time>
      </trkpt>
      <trkpt lat="44.30376" lon="5.55689">
        <ele>1157.7</ele>
        <time>2021-09-30T07:35:13Z</time>
      </trkpt>
      <trkpt lat="44.30368" lon="5.55713">
        <ele>1165.3</ele>
        <time>2021-09-30T07:35:38Z</time>
      </trkpt>
      <trkpt lat="44.30365" lon="5.5572">
        <ele>1168</ele>
        <time>2021-09-30T07:36:04Z</time>
      </trkpt>
      <trkpt lat="44.30362" lon="5.55736">
        <ele>1171.3</ele>
        <time>2021-09-30T07:36:25Z</time>
      </trkpt>
      <trkpt lat="44.30364" lon="5.55744">
        <ele>1170.6</ele>
        <time>2021-09-30T07:36:41Z</time>
      </trkpt>
      <trkpt lat="44.30369" lon="5.55759">
        <ele>1168.4</ele>
        <time>2021-09-30T07:37:01Z</time>
      </trkpt>
      <trkpt lat="44.30374" lon="5.55784">
        <ele>1167</ele>
        <time>2021-09-30T07:37:27Z</time>
      </trkpt>
      <trkpt lat="44.30378" lon="5.55816">
        <ele>1167</ele>
        <time>2021-09-30T07:37:55Z</time>
      </trkpt>
      <trkpt lat="44.30378" lon="5.55821">
        <ele>1167.4</ele>
        <time>2021-09-30T07:37:59Z</time>
      </trkpt>
      <trkpt lat="44.30378" lon="5.55849">
        <ele>1171</ele>
        <time>2021-09-30T07:38:19Z</time>
      </trkpt>
      <trkpt lat="44.30381" lon="5.55873">
        <ele>1172.9</ele>
        <time>2021-09-30T07:38:39Z</time>
      </trkpt>
      <trkpt lat="44.30387" lon="5.55893">
        <ele>1172.1</ele>
        <time>2021-09-30T07:39:01Z</time>
      </trkpt>
      <trkpt lat="44.30394" lon="5.55919">
        <ele>1171.7</ele>
        <time>2021-09-30T07:39:20Z</time>
      </trkpt>
      <trkpt lat="44.30394" lon="5.5593">
        <ele>1173.9</ele>
        <time>2021-09-30T07:39:43Z</time>
      </trkpt>
      <trkpt lat="44.30396" lon="5.55944">
        <ele>1175.4</ele>
        <time>2021-09-30T07:40:07Z</time>
      </trkpt>
      <trkpt lat="44.30397" lon="5.55947">
        <ele>1175.4</ele>
        <time>2021-09-30T07:40:13Z</time>
      </trkpt>
      <trkpt lat="44.30404" lon="5.55961">
        <ele>1173.9</ele>
        <time>2021-09-30T07:40:36Z</time>
      </trkpt>
      <trkpt lat="44.30396" lon="5.55976">
        <ele>1181.8</ele>
        <time>2021-09-30T07:41:33Z</time>
      </trkpt>
      <trkpt lat="44.30401" lon="5.55987">
        <ele>1181.1</ele>
        <time>2021-09-30T07:41:54Z</time>
      </trkpt>
      <trkpt lat="44.30412" lon="5.56008">
        <ele>1179.6</ele>
        <time>2021-09-30T07:42:41Z</time>
      </trkpt>
      <trkpt lat="44.3042" lon="5.55996">
        <ele>1173.6</ele>
        <time>2021-09-30T07:43:05Z</time>
      </trkpt>
      <trkpt lat="44.30427" lon="5.55996">
        <ele>1172.6</ele>
        <time>2021-09-30T07:43:20Z</time>
      </trkpt>
      <trkpt lat="44.30429" lon="5.55994">
        <ele>1171.8</ele>
        <time>2021-09-30T07:43:22Z</time>
      </trkpt>
      <trkpt lat="44.30471" lon="5.56017">
        <ele>1171.9</ele>
        <time>2021-09-30T07:43:43Z</time>
      </trkpt>
      <trkpt lat="44.30474" lon="5.5602">
        <ele>1172.3</ele>
        <time>2021-09-30T07:43:46Z</time>
      </trkpt>
      <trkpt lat="44.30499" lon="5.56037">
        <ele>1173.8</ele>
        <time>2021-09-30T07:44:10Z</time>
      </trkpt>
      <trkpt lat="44.30499" lon="5.56041">
        <ele>1174.9</ele>
        <time>2021-09-30T07:44:15Z</time>
      </trkpt>
      <trkpt lat="44.30499" lon="5.56047">
        <ele>1176.7</ele>
        <time>2021-09-30T07:44:21Z</time>
      </trkpt>
      <trkpt lat="44.30501" lon="5.56056">
        <ele>1179.3</ele>
        <time>2021-09-30T07:44:29Z</time>
      </trkpt>
      <trkpt lat="44.30501" lon="5.5606">
        <ele>1180.4</ele>
        <time>2021-09-30T07:44:32Z</time>
      </trkpt>
      <trkpt lat="44.30506" lon="5.56071">
        <ele>1184.3</ele>
        <time>2021-09-30T07:44:41Z</time>
      </trkpt>
      <trkpt lat="44.30506" lon="5.56076">
        <ele>1185.8</ele>
        <time>2021-09-30T07:44:44Z</time>
      </trkpt>
      <trkpt lat="44.30505" lon="5.56079">
        <ele>1186.5</ele>
        <time>2021-09-30T07:44:46Z</time>
      </trkpt>
      <trkpt lat="44.30509" lon="5.56091">
        <ele>1190</ele>
        <time>2021-09-30T07:44:53Z</time>
      </trkpt>
      <trkpt lat="44.3052" lon="5.56114">
        <ele>1196.6</ele>
        <time>2021-09-30T07:45:05Z</time>
      </trkpt>
      <trkpt lat="44.30517" lon="5.56149">
        <ele>1203.9</ele>
        <time>2021-09-30T07:45:22Z</time>
      </trkpt>
      <trkpt lat="44.30518" lon="5.56151">
        <ele>1204.5</ele>
        <time>2021-09-30T07:45:24Z</time>
      </trkpt>
      <trkpt lat="44.3051" lon="5.56179">
        <ele>1208.8</ele>
        <time>2021-09-30T07:45:51Z</time>
      </trkpt>
      <trkpt lat="44.30498" lon="5.56212">
        <ele>1212.8</ele>
        <time>2021-09-30T07:46:22Z</time>
      </trkpt>
      <trkpt lat="44.30484" lon="5.56224">
        <ele>1216.8</ele>
        <time>2021-09-30T07:46:56Z</time>
      </trkpt>
      <trkpt lat="44.30464" lon="5.56233">
        <ele>1221.3</ele>
        <time>2021-09-30T07:47:22Z</time>
      </trkpt>
      <trkpt lat="44.30457" lon="5.56252">
        <ele>1225.5</ele>
        <time>2021-09-30T07:47:50Z</time>
      </trkpt>
      <trkpt lat="44.30453" lon="5.56263">
        <ele>1227.8</ele>
        <time>2021-09-30T07:48:37Z</time>
      </trkpt>
      <trkpt lat="44.30447" lon="5.56256">
        <ele>1227.8</ele>
        <time>2021-09-30T07:49:30Z</time>
      </trkpt>
      <trkpt lat="44.30455" lon="5.56255">
        <ele>1226.3</ele>
        <time>2021-09-30T07:50:06Z</time>
      </trkpt>
      <trkpt lat="44.30455" lon="5.56257">
        <ele>1226.6</ele>
        <time>2021-09-30T07:51:02Z</time>
      </trkpt>
      <trkpt lat="44.30454" lon="5.56264">
        <ele>1227.8</ele>
        <time>2021-09-30T07:51:38Z</time>
      </trkpt>
      <trkpt lat="44.30457" lon="5.56274">
        <ele>1228.7</ele>
        <time>2021-09-30T07:52:28Z</time>
      </trkpt>
      <trkpt lat="44.3045" lon="5.56294">
        <ele>1232.8</ele>
        <time>2021-09-30T07:53:15Z</time>
      </trkpt>
      <trkpt lat="44.30445" lon="5.5631">
        <ele>1236.1</ele>
        <time>2021-09-30T07:53:38Z</time>
      </trkpt>
      <trkpt lat="44.30444" lon="5.56339">
        <ele>1240.3</ele>
        <time>2021-09-30T07:54:05Z</time>
      </trkpt>
      <trkpt lat="44.30448" lon="5.56384">
        <ele>1244.4</ele>
        <time>2021-09-30T07:54:35Z</time>
      </trkpt>
      <trkpt lat="44.30458" lon="5.56418">
        <ele>1246.5</ele>
        <time>2021-09-30T07:55:02Z</time>
      </trkpt>
      <trkpt lat="44.30465" lon="5.56454">
        <ele>1245.6</ele>
        <time>2021-09-30T07:55:27Z</time>
      </trkpt>
      <trkpt lat="44.30466" lon="5.56487">
        <ele>1245.5</ele>
        <time>2021-09-30T07:55:52Z</time>
      </trkpt>
      <trkpt lat="44.30448" lon="5.56523">
        <ele>1244.2</ele>
        <time>2021-09-30T07:56:18Z</time>
      </trkpt>
      <trkpt lat="44.30438" lon="5.5656">
        <ele>1240.1</ele>
        <time>2021-09-30T07:56:46Z</time>
      </trkpt>
      <trkpt lat="44.30444" lon="5.56586">
        <ele>1237.1</ele>
        <time>2021-09-30T07:57:07Z</time>
      </trkpt>
      <trkpt lat="44.30449" lon="5.5661">
        <ele>1234.8</ele>
        <time>2021-09-30T07:57:26Z</time>
      </trkpt>
      <trkpt lat="44.30457" lon="5.56639">
        <ele>1231.9</ele>
        <time>2021-09-30T07:57:49Z</time>
      </trkpt>
      <trkpt lat="44.30461" lon="5.56648">
        <ele>1230.8</ele>
        <time>2021-09-30T07:57:56Z</time>
      </trkpt>
      <trkpt lat="44.30467" lon="5.56667">
        <ele>1228.5</ele>
        <time>2021-09-30T07:58:12Z</time>
      </trkpt>
      <trkpt lat="44.30477" lon="5.56701">
        <ele>1223.5</ele>
        <time>2021-09-30T07:58:41Z</time>
      </trkpt>
      <trkpt lat="44.30481" lon="5.56732">
        <ele>1219</ele>
        <time>2021-09-30T07:59:07Z</time>
      </trkpt>
      <trkpt lat="44.30488" lon="5.56757">
        <ele>1215.1</ele>
        <time>2021-09-30T07:59:26Z</time>
      </trkpt>
      <trkpt lat="44.30503" lon="5.56781">
        <ele>1211.8</ele>
        <time>2021-09-30T07:59:47Z</time>
      </trkpt>
      <trkpt lat="44.30506" lon="5.56784">
        <ele>1212</ele>
        <time>2021-09-30T07:59:50Z</time>
      </trkpt>
      <trkpt lat="44.30514" lon="5.56797">
        <ele>1211.6</ele>
        <time>2021-09-30T08:00:06Z</time>
      </trkpt>
      <trkpt lat="44.30523" lon="5.56814">
        <ele>1210.3</ele>
        <time>2021-09-30T08:00:24Z</time>
      </trkpt>
      <trkpt lat="44.30531" lon="5.56835">
        <ele>1208</ele>
        <time>2021-09-30T08:00:43Z</time>
      </trkpt>
      <trkpt lat="44.30538" lon="5.56847">
        <ele>1206.8</ele>
        <time>2021-09-30T08:00:57Z</time>
      </trkpt>
      <trkpt lat="44.30549" lon="5.56866">
        <ele>1204.3</ele>
        <time>2021-09-30T08:01:16Z</time>
      </trkpt>
      <trkpt lat="44.30569" lon="5.56888">
        <ele>1199.5</ele>
        <time>2021-09-30T08:01:42Z</time>
      </trkpt>
      <trkpt lat="44.30584" lon="5.56915">
        <ele>1192.4</ele>
        <time>2021-09-30T08:02:08Z</time>
      </trkpt>
      <trkpt lat="44.30595" lon="5.56935">
        <ele>1190.5</ele>
        <time>2021-09-30T08:02:29Z</time>
      </trkpt>
      <trkpt lat="44.30604" lon="5.56954">
        <ele>1187.7</ele>
        <time>2021-09-30T08:02:47Z</time>
      </trkpt>
      <trkpt lat="44.30614" lon="5.5697">
        <ele>1184.6</ele>
        <time>2021-09-30T08:03:03Z</time>
      </trkpt>
      <trkpt lat="44.30625" lon="5.56982">
        <ele>1181.7</ele>
        <time>2021-09-30T08:03:21Z</time>
      </trkpt>
      <trkpt lat="44.3064" lon="5.56994">
        <ele>1177.9</ele>
        <time>2021-09-30T08:03:39Z</time>
      </trkpt>
      <trkpt lat="44.3065" lon="5.57002">
        <ele>1175.6</ele>
        <time>2021-09-30T08:03:54Z</time>
      </trkpt>
      <trkpt lat="44.30662" lon="5.57011">
        <ele>1175.2</ele>
        <time>2021-09-30T08:04:12Z</time>
      </trkpt>
      <trkpt lat="44.30681" lon="5.57023">
        <ele>1174.3</ele>
        <time>2021-09-30T08:04:33Z</time>
      </trkpt>
      <trkpt lat="44.30699" lon="5.57027">
        <ele>1172.7</ele>
        <time>2021-09-30T08:04:52Z</time>
      </trkpt>
      <trkpt lat="44.30712" lon="5.57034">
        <ele>1171.5</ele>
        <time>2021-09-30T08:05:10Z</time>
      </trkpt>
      <trkpt lat="44.30716" lon="5.57035">
        <ele>1171.1</ele>
        <time>2021-09-30T08:05:15Z</time>
      </trkpt>
      <trkpt lat="44.3074" lon="5.5703">
        <ele>1168.6</ele>
        <time>2021-09-30T08:05:36Z</time>
      </trkpt>
      <trkpt lat="44.30756" lon="5.57033">
        <ele>1166.2</ele>
        <time>2021-09-30T08:05:56Z</time>
      </trkpt>
      <trkpt lat="44.30781" lon="5.57029">
        <ele>1161.3</ele>
        <time>2021-09-30T08:06:24Z</time>
      </trkpt>
      <trkpt lat="44.30785" lon="5.57027">
        <ele>1160.5</ele>
        <time>2021-09-30T08:06:28Z</time>
      </trkpt>
      <trkpt lat="44.30788" lon="5.57025">
        <ele>1160</ele>
        <time>2021-09-30T08:06:31Z</time>
      </trkpt>
      <trkpt lat="44.30793" lon="5.57023">
        <ele>1158.9</ele>
        <time>2021-09-30T08:06:36Z</time>
      </trkpt>
      <trkpt lat="44.30826" lon="5.57016">
        <ele>1152</ele>
        <time>2021-09-30T08:07:06Z</time>
      </trkpt>
      <trkpt lat="44.30852" lon="5.57005">
        <ele>1146.5</ele>
        <time>2021-09-30T08:07:33Z</time>
      </trkpt>
      <trkpt lat="44.30867" lon="5.57001">
        <ele>1143.2</ele>
        <time>2021-09-30T08:07:54Z</time>
      </trkpt>
      <trkpt lat="44.30888" lon="5.56993">
        <ele>1141.5</ele>
        <time>2021-09-30T08:08:19Z</time>
      </trkpt>
      <trkpt lat="44.30903" lon="5.56987">
        <ele>1140.5</ele>
        <time>2021-09-30T08:08:40Z</time>
      </trkpt>
      <trkpt lat="44.3092" lon="5.56984">
        <ele>1137.7</ele>
        <time>2021-09-30T08:09:01Z</time>
      </trkpt>
      <trkpt lat="44.30932" lon="5.56987">
        <ele>1133.6</ele>
        <time>2021-09-30T08:09:20Z</time>
      </trkpt>
      <trkpt lat="44.30951" lon="5.56983">
        <ele>1129.9</ele>
        <time>2021-09-30T08:09:46Z</time>
      </trkpt>
      <trkpt lat="44.30967" lon="5.56977">
        <ele>1127.4</ele>
        <time>2021-09-30T08:10:06Z</time>
      </trkpt>
      <trkpt lat="44.30995" lon="5.56967">
        <ele>1122.3</ele>
        <time>2021-09-30T08:10:31Z</time>
      </trkpt>
      <trkpt lat="44.31017" lon="5.56961">
        <ele>1117.8</ele>
        <time>2021-09-30T08:10:55Z</time>
      </trkpt>
      <trkpt lat="44.31041" lon="5.56957">
        <ele>1112.2</ele>
        <time>2021-09-30T08:11:18Z</time>
      </trkpt>
      <trkpt lat="44.31058" lon="5.56953">
        <ele>1108.3</ele>
        <time>2021-09-30T08:11:37Z</time>
      </trkpt>
      <trkpt lat="44.31087" lon="5.56951">
        <ele>1101</ele>
        <time>2021-09-30T08:12:03Z</time>
      </trkpt>
      <trkpt lat="44.31109" lon="5.56933">
        <ele>1099.2</ele>
        <time>2021-09-30T08:12:28Z</time>
      </trkpt>
      <trkpt lat="44.31121" lon="5.56911">
        <ele>1098.8</ele>
        <time>2021-09-30T08:12:48Z</time>
      </trkpt>
      <trkpt lat="44.31134" lon="5.56902">
        <ele>1096.7</ele>
        <time>2021-09-30T08:13:04Z</time>
      </trkpt>
      <trkpt lat="44.31148" lon="5.56893">
        <ele>1093.9</ele>
        <time>2021-09-30T08:13:20Z</time>
      </trkpt>
      <trkpt lat="44.31161" lon="5.56881">
        <ele>1091.3</ele>
        <time>2021-09-30T08:13:35Z</time>
      </trkpt>
      <trkpt lat="44.31175" lon="5.56866">
        <ele>1090.1</ele>
        <time>2021-09-30T08:13:55Z</time>
      </trkpt>
      <trkpt lat="44.3119" lon="5.5686">
        <ele>1089.4</ele>
        <time>2021-09-30T08:14:13Z</time>
      </trkpt>
      <trkpt lat="44.31206" lon="5.56859">
        <ele>1088.2</ele>
        <time>2021-09-30T08:14:34Z</time>
      </trkpt>
      <trkpt lat="44.31221" lon="5.56852">
        <ele>1086.9</ele>
        <time>2021-09-30T08:14:56Z</time>
      </trkpt>
      <trkpt lat="44.31241" lon="5.56853">
        <ele>1085.2</ele>
        <time>2021-09-30T08:15:19Z</time>
      </trkpt>
      <trkpt lat="44.3125" lon="5.56859">
        <ele>1084.8</ele>
        <time>2021-09-30T08:15:47Z</time>
      </trkpt>
      <trkpt lat="44.31246" lon="5.56851">
        <ele>1084.6</ele>
        <time>2021-09-30T08:16:00Z</time>
      </trkpt>
      <trkpt lat="44.31247" lon="5.56849">
        <ele>1084.4</ele>
        <time>2021-09-30T08:16:11Z</time>
      </trkpt>
      <trkpt lat="44.31248" lon="5.56847">
        <ele>1084.2</ele>
        <time>2021-09-30T08:17:18Z</time>
      </trkpt>
      <trkpt lat="44.31247" lon="5.56847">
        <ele>1084.3</ele>
        <time>2021-09-30T08:17:19Z</time>
      </trkpt>
      <trkpt lat="44.31236" lon="5.56857">
        <ele>1085.8</ele>
        <time>2021-09-30T08:17:49Z</time>
      </trkpt>
      <trkpt lat="44.31236" lon="5.56858">
        <ele>1085.9</ele>
        <time>2021-09-30T08:17:51Z</time>
      </trkpt>
      <trkpt lat="44.3123" lon="5.56863">
        <ele>1086.5</ele>
        <time>2021-09-30T08:18:22Z</time>
      </trkpt>
      <trkpt lat="44.31233" lon="5.56867">
        <ele>1086.5</ele>
        <time>2021-09-30T08:18:33Z</time>
      </trkpt>
      <trkpt lat="44.31227" lon="5.56868">
        <ele>1086.9</ele>
        <time>2021-09-30T08:19:31Z</time>
      </trkpt>
      <trkpt lat="44.31217" lon="5.56874">
        <ele>1087.6</ele>
        <time>2021-09-30T08:20:00Z</time>
      </trkpt>
      <trkpt lat="44.312" lon="5.56883">
        <ele>1088.3</ele>
        <time>2021-09-30T08:20:21Z</time>
      </trkpt>
      <trkpt lat="44.312" lon="5.56884">
        <ele>1088.3</ele>
        <time>2021-09-30T08:20:22Z</time>
      </trkpt>
      <trkpt lat="44.31182" lon="5.56882">
        <ele>1088.9</ele>
        <time>2021-09-30T08:20:45Z</time>
      </trkpt>
      <trkpt lat="44.31174" lon="5.56895">
        <ele>1088.5</ele>
        <time>2021-09-30T08:21:05Z</time>
      </trkpt>
      <trkpt lat="44.31195" lon="5.56912">
        <ele>1087.8</ele>
        <time>2021-09-30T08:21:27Z</time>
      </trkpt>
      <trkpt lat="44.31209" lon="5.56935">
        <ele>1090.4</ele>
        <time>2021-09-30T08:21:53Z</time>
      </trkpt>
      <trkpt lat="44.31207" lon="5.56957">
        <ele>1092.9</ele>
        <time>2021-09-30T08:22:15Z</time>
      </trkpt>
      <trkpt lat="44.31204" lon="5.56985">
        <ele>1095.8</ele>
        <time>2021-09-30T08:22:43Z</time>
      </trkpt>
      <trkpt lat="44.31192" lon="5.56997">
        <ele>1094.5</ele>
        <time>2021-09-30T08:23:10Z</time>
      </trkpt>
      <trkpt lat="44.31189" lon="5.57019">
        <ele>1096.3</ele>
        <time>2021-09-30T08:23:33Z</time>
      </trkpt>
      <trkpt lat="44.31183" lon="5.57037">
        <ele>1096.8</ele>
        <time>2021-09-30T08:24:08Z</time>
      </trkpt>
      <trkpt lat="44.31179" lon="5.57064">
        <ele>1098.6</ele>
        <time>2021-09-30T08:24:30Z</time>
      </trkpt>
      <trkpt lat="44.31174" lon="5.57094">
        <ele>1101</ele>
        <time>2021-09-30T08:24:55Z</time>
      </trkpt>
      <trkpt lat="44.31187" lon="5.57106">
        <ele>1106.8</ele>
        <time>2021-09-30T08:25:13Z</time>
      </trkpt>
      <trkpt lat="44.31189" lon="5.57112">
        <ele>1108.4</ele>
        <time>2021-09-30T08:25:22Z</time>
      </trkpt>
      <trkpt lat="44.31191" lon="5.57142">
        <ele>1114</ele>
        <time>2021-09-30T08:25:49Z</time>
      </trkpt>
      <trkpt lat="44.31182" lon="5.57162">
        <ele>1114.6</ele>
        <time>2021-09-30T08:26:13Z</time>
      </trkpt>
      <trkpt lat="44.31179" lon="5.57182">
        <ele>1116.9</ele>
        <time>2021-09-30T08:26:34Z</time>
      </trkpt>
      <trkpt lat="44.31173" lon="5.57213">
        <ele>1119.7</ele>
        <time>2021-09-30T08:27:05Z</time>
      </trkpt>
      <trkpt lat="44.31175" lon="5.5724">
        <ele>1124.5</ele>
        <time>2021-09-30T08:27:33Z</time>
      </trkpt>
      <trkpt lat="44.31172" lon="5.57268">
        <ele>1127.8</ele>
        <time>2021-09-30T08:27:59Z</time>
      </trkpt>
      <trkpt lat="44.3117" lon="5.57295">
        <ele>1131.3</ele>
        <time>2021-09-30T08:28:26Z</time>
      </trkpt>
      <trkpt lat="44.31163" lon="5.57318">
        <ele>1133.9</ele>
        <time>2021-09-30T08:28:50Z</time>
      </trkpt>
      <trkpt lat="44.3116" lon="5.57346">
        <ele>1138.5</ele>
        <time>2021-09-30T08:29:17Z</time>
      </trkpt>
      <trkpt lat="44.3116" lon="5.57364">
        <ele>1141.3</ele>
        <time>2021-09-30T08:29:38Z</time>
      </trkpt>
      <trkpt lat="44.31159" lon="5.57386">
        <ele>1144.8</ele>
        <time>2021-09-30T08:30:04Z</time>
      </trkpt>
      <trkpt lat="44.31159" lon="5.57408">
        <ele>1148.2</ele>
        <time>2021-09-30T08:30:26Z</time>
      </trkpt>
      <trkpt lat="44.31152" lon="5.57433">
        <ele>1153.4</ele>
        <time>2021-09-30T08:30:50Z</time>
      </trkpt>
      <trkpt lat="44.31145" lon="5.57453">
        <ele>1157.8</ele>
        <time>2021-09-30T08:31:14Z</time>
      </trkpt>
      <trkpt lat="44.3114" lon="5.57468">
        <ele>1161</ele>
        <time>2021-09-30T08:31:34Z</time>
      </trkpt>
      <trkpt lat="44.3114" lon="5.57473">
        <ele>1162</ele>
        <time>2021-09-30T08:31:42Z</time>
      </trkpt>
      <trkpt lat="44.31134" lon="5.57484">
        <ele>1164.3</ele>
        <time>2021-09-30T08:31:55Z</time>
      </trkpt>
      <trkpt lat="44.31132" lon="5.5749">
        <ele>1165.5</ele>
        <time>2021-09-30T08:32:00Z</time>
      </trkpt>
      <trkpt lat="44.31122" lon="5.57504">
        <ele>1167.8</ele>
        <time>2021-09-30T08:32:25Z</time>
      </trkpt>
      <trkpt lat="44.31116" lon="5.57514">
        <ele>1168.7</ele>
        <time>2021-09-30T08:32:47Z</time>
      </trkpt>
      <trkpt lat="44.31114" lon="5.57516">
        <ele>1168.9</ele>
        <time>2021-09-30T08:32:49Z</time>
      </trkpt>
      <trkpt lat="44.31107" lon="5.57529">
        <ele>1170.1</ele>
        <time>2021-09-30T08:33:10Z</time>
      </trkpt>
      <trkpt lat="44.31103" lon="5.5755">
        <ele>1171.8</ele>
        <time>2021-09-30T08:33:36Z</time>
      </trkpt>
      <trkpt lat="44.31101" lon="5.57571">
        <ele>1173.6</ele>
        <time>2021-09-30T08:34:00Z</time>
      </trkpt>
      <trkpt lat="44.31095" lon="5.57589">
        <ele>1174.1</ele>
        <time>2021-09-30T08:34:26Z</time>
      </trkpt>
      <trkpt lat="44.31096" lon="5.57595">
        <ele>1173.4</ele>
        <time>2021-09-30T08:34:53Z</time>
      </trkpt>
      <trkpt lat="44.31094" lon="5.576">
        <ele>1172.8</ele>
        <time>2021-09-30T08:35:17Z</time>
      </trkpt>
      <trkpt lat="44.31093" lon="5.5761">
        <ele>1171.7</ele>
        <time>2021-09-30T08:35:51Z</time>
      </trkpt>
      <trkpt lat="44.31098" lon="5.57598">
        <ele>1173</ele>
        <time>2021-09-30T08:36:19Z</time>
      </trkpt>
      <trkpt lat="44.311" lon="5.57596">
        <ele>1173.2</ele>
        <time>2021-09-30T08:36:39Z</time>
      </trkpt>
      <trkpt lat="44.31101" lon="5.57599">
        <ele>1172.8</ele>
        <time>2021-09-30T08:37:05Z</time>
      </trkpt>
      <trkpt lat="44.31102" lon="5.57597">
        <ele>1173</ele>
        <time>2021-09-30T08:37:50Z</time>
      </trkpt>
      <trkpt lat="44.31103" lon="5.57594">
        <ele>1173.3</ele>
        <time>2021-09-30T08:38:24Z</time>
      </trkpt>
      <trkpt lat="44.31103" lon="5.57593">
        <ele>1173.5</ele>
        <time>2021-09-30T08:39:04Z</time>
      </trkpt>
      <trkpt lat="44.31103" lon="5.57596">
        <ele>1173.1</ele>
        <time>2021-09-30T08:39:49Z</time>
      </trkpt>
      <trkpt lat="44.31104" lon="5.576">
        <ele>1172.7</ele>
        <time>2021-09-30T08:40:47Z</time>
      </trkpt>
      <trkpt lat="44.31103" lon="5.57601">
        <ele>1172.6</ele>
        <time>2021-09-30T08:41:41Z</time>
      </trkpt>
      <trkpt lat="44.311" lon="5.57606">
        <ele>1172</ele>
        <time>2021-09-30T08:42:43Z</time>
      </trkpt>
      <trkpt lat="44.31101" lon="5.57605">
        <ele>1172.1</ele>
        <time>2021-09-30T08:43:57Z</time>
      </trkpt>
      <trkpt lat="44.31104" lon="5.576">
        <ele>1172.7</ele>
        <time>2021-09-30T08:44:47Z</time>
      </trkpt>
      <trkpt lat="44.31103" lon="5.57595">
        <ele>1173.2</ele>
        <time>2021-09-30T08:45:49Z</time>
      </trkpt>
      <trkpt lat="44.31093" lon="5.57605">
        <ele>1172.3</ele>
        <time>2021-09-30T08:46:09Z</time>
      </trkpt>
      <trkpt lat="44.31077" lon="5.57625">
        <ele>1172.8</ele>
        <time>2021-09-30T08:46:36Z</time>
      </trkpt>
      <trkpt lat="44.31067" lon="5.57645">
        <ele>1174.8</ele>
        <time>2021-09-30T08:46:56Z</time>
      </trkpt>
      <trkpt lat="44.31053" lon="5.57672">
        <ele>1177.6</ele>
        <time>2021-09-30T08:47:18Z</time>
      </trkpt>
      <trkpt lat="44.31039" lon="5.57689">
        <ele>1181</ele>
        <time>2021-09-30T08:47:36Z</time>
      </trkpt>
      <trkpt lat="44.31021" lon="5.57707">
        <ele>1185.8</ele>
        <time>2021-09-30T08:47:53Z</time>
      </trkpt>
      <trkpt lat="44.31014" lon="5.57724">
        <ele>1185.8</ele>
        <time>2021-09-30T08:48:12Z</time>
      </trkpt>
      <trkpt lat="44.31009" lon="5.57741">
        <ele>1184.9</ele>
        <time>2021-09-30T08:48:23Z</time>
      </trkpt>
      <trkpt lat="44.30997" lon="5.57768">
        <ele>1187.3</ele>
        <time>2021-09-30T08:48:45Z</time>
      </trkpt>
      <trkpt lat="44.30994" lon="5.57794">
        <ele>1186.7</ele>
        <time>2021-09-30T08:49:11Z</time>
      </trkpt>
      <trkpt lat="44.30994" lon="5.57815">
        <ele>1184.4</ele>
        <time>2021-09-30T08:49:27Z</time>
      </trkpt>
      <trkpt lat="44.30997" lon="5.57852">
        <ele>1178.8</ele>
        <time>2021-09-30T08:49:51Z</time>
      </trkpt>
      <trkpt lat="44.31" lon="5.57891">
        <ele>1173.8</ele>
        <time>2021-09-30T08:50:12Z</time>
      </trkpt>
      <trkpt lat="44.31002" lon="5.57894">
        <ele>1172.8</ele>
        <time>2021-09-30T08:50:14Z</time>
      </trkpt>
      <trkpt lat="44.31009" lon="5.57914">
        <ele>1168.2</ele>
        <time>2021-09-30T08:50:29Z</time>
      </trkpt>
      <trkpt lat="44.3101" lon="5.57923">
        <ele>1167.4</ele>
        <time>2021-09-30T08:50:35Z</time>
      </trkpt>
      <trkpt lat="44.31017" lon="5.57949">
        <ele>1163.9</ele>
        <time>2021-09-30T08:50:52Z</time>
      </trkpt>
      <trkpt lat="44.31025" lon="5.57976">
        <ele>1160.1</ele>
        <time>2021-09-30T08:51:15Z</time>
      </trkpt>
      <trkpt lat="44.31026" lon="5.57987">
        <ele>1159.6</ele>
        <time>2021-09-30T08:51:22Z</time>
      </trkpt>
      <trkpt lat="44.31024" lon="5.58024">
        <ele>1160.3</ele>
        <time>2021-09-30T08:51:47Z</time>
      </trkpt>
      <trkpt lat="44.31024" lon="5.58058">
        <ele>1160.5</ele>
        <time>2021-09-30T08:52:08Z</time>
      </trkpt>
      <trkpt lat="44.31027" lon="5.58076">
        <ele>1159.3</ele>
        <time>2021-09-30T08:52:28Z</time>
      </trkpt>
      <trkpt lat="44.31034" lon="5.58105">
        <ele>1157.8</ele>
        <time>2021-09-30T08:52:51Z</time>
      </trkpt>
      <trkpt lat="44.31034" lon="5.58134">
        <ele>1159.7</ele>
        <time>2021-09-30T08:53:14Z</time>
      </trkpt>
      <trkpt lat="44.31039" lon="5.58147">
        <ele>1158.6</ele>
        <time>2021-09-30T08:53:27Z</time>
      </trkpt>
      <trkpt lat="44.31038" lon="5.58185">
        <ele>1161.8</ele>
        <time>2021-09-30T08:53:50Z</time>
      </trkpt>
      <trkpt lat="44.31041" lon="5.58208">
        <ele>1162.5</ele>
        <time>2021-09-30T08:54:08Z</time>
      </trkpt>
      <trkpt lat="44.31056" lon="5.58247">
        <ele>1160.9</ele>
        <time>2021-09-30T08:54:34Z</time>
      </trkpt>
      <trkpt lat="44.31056" lon="5.58267">
        <ele>1160.9</ele>
        <time>2021-09-30T08:54:56Z</time>
      </trkpt>
      <trkpt lat="44.31053" lon="5.5827">
        <ele>1161.7</ele>
        <time>2021-09-30T08:55:01Z</time>
      </trkpt>
      <trkpt lat="44.31043" lon="5.58276">
        <ele>1164.5</ele>
        <time>2021-09-30T08:55:21Z</time>
      </trkpt>
      <trkpt lat="44.31033" lon="5.58316">
        <ele>1166.4</ele>
        <time>2021-09-30T08:55:49Z</time>
      </trkpt>
      <trkpt lat="44.3102" lon="5.58358">
        <ele>1167.1</ele>
        <time>2021-09-30T08:56:16Z</time>
      </trkpt>
      <trkpt lat="44.31017" lon="5.58384">
        <ele>1165.4</ele>
        <time>2021-09-30T08:56:37Z</time>
      </trkpt>
      <trkpt lat="44.31009" lon="5.58424">
        <ele>1164.1</ele>
        <time>2021-09-30T08:57:06Z</time>
      </trkpt>
      <trkpt lat="44.31007" lon="5.58457">
        <ele>1160.8</ele>
        <time>2021-09-30T08:57:27Z</time>
      </trkpt>
      <trkpt lat="44.31007" lon="5.5849">
        <ele>1156.8</ele>
        <time>2021-09-30T08:57:49Z</time>
      </trkpt>
      <trkpt lat="44.31008" lon="5.5851">
        <ele>1153.5</ele>
        <time>2021-09-30T08:58:07Z</time>
      </trkpt>
      <trkpt lat="44.31009" lon="5.58521">
        <ele>1151.2</ele>
        <time>2021-09-30T08:58:20Z</time>
      </trkpt>
      <trkpt lat="44.31009" lon="5.58534">
        <ele>1149</ele>
        <time>2021-09-30T08:58:35Z</time>
      </trkpt>
      <trkpt lat="44.31008" lon="5.58553">
        <ele>1146</ele>
        <time>2021-09-30T08:58:54Z</time>
      </trkpt>
      <trkpt lat="44.31002" lon="5.58585">
        <ele>1142.2</ele>
        <time>2021-09-30T08:59:22Z</time>
      </trkpt>
      <trkpt lat="44.31003" lon="5.58615">
        <ele>1138.4</ele>
        <time>2021-09-30T08:59:43Z</time>
      </trkpt>
      <trkpt lat="44.30997" lon="5.58637">
        <ele>1138.1</ele>
        <time>2021-09-30T09:00:00Z</time>
      </trkpt>
      <trkpt lat="44.30994" lon="5.58652">
        <ele>1137.9</ele>
        <time>2021-09-30T09:00:23Z</time>
      </trkpt>
      <trkpt lat="44.30992" lon="5.58668">
        <ele>1137</ele>
        <time>2021-09-30T09:00:42Z</time>
      </trkpt>
      <trkpt lat="44.30982" lon="5.58702">
        <ele>1137.6</ele>
        <time>2021-09-30T09:01:06Z</time>
      </trkpt>
      <trkpt lat="44.30982" lon="5.58718">
        <ele>1135.4</ele>
        <time>2021-09-30T09:01:34Z</time>
      </trkpt>
      <trkpt lat="44.30983" lon="5.58745">
        <ele>1131.1</ele>
        <time>2021-09-30T09:01:54Z</time>
      </trkpt>
      <trkpt lat="44.30977" lon="5.58771">
        <ele>1133.6</ele>
        <time>2021-09-30T09:02:11Z</time>
      </trkpt>
      <trkpt lat="44.30975" lon="5.58782">
        <ele>1134.5</ele>
        <time>2021-09-30T09:02:18Z</time>
      </trkpt>
      <trkpt lat="44.30967" lon="5.58809">
        <ele>1138.8</ele>
        <time>2021-09-30T09:02:37Z</time>
      </trkpt>
      <trkpt lat="44.30965" lon="5.58838">
        <ele>1139.8</ele>
        <time>2021-09-30T09:02:57Z</time>
      </trkpt>
      <trkpt lat="44.30965" lon="5.58868">
        <ele>1142.2</ele>
        <time>2021-09-30T09:03:17Z</time>
      </trkpt>
      <trkpt lat="44.30962" lon="5.58898">
        <ele>1146.6</ele>
        <time>2021-09-30T09:03:39Z</time>
      </trkpt>
      <trkpt lat="44.30966" lon="5.58915">
        <ele>1145.3</ele>
        <time>2021-09-30T09:03:48Z</time>
      </trkpt>
      <trkpt lat="44.30972" lon="5.58931">
        <ele>1144.3</ele>
        <time>2021-09-30T09:03:58Z</time>
      </trkpt>
      <trkpt lat="44.30974" lon="5.58961">
        <ele>1149</ele>
        <time>2021-09-30T09:04:14Z</time>
      </trkpt>
      <trkpt lat="44.3098" lon="5.58978">
        <ele>1148.1</ele>
        <time>2021-09-30T09:04:25Z</time>
      </trkpt>
      <trkpt lat="44.30994" lon="5.59002">
        <ele>1143</ele>
        <time>2021-09-30T09:04:42Z</time>
      </trkpt>
      <trkpt lat="44.30996" lon="5.59005">
        <ele>1142.6</ele>
        <time>2021-09-30T09:04:44Z</time>
      </trkpt>
      <trkpt lat="44.31007" lon="5.59024">
        <ele>1143.8</ele>
        <time>2021-09-30T09:04:59Z</time>
      </trkpt>
      <trkpt lat="44.31012" lon="5.59032">
        <ele>1144.6</ele>
        <time>2021-09-30T09:05:06Z</time>
      </trkpt>
      <trkpt lat="44.31022" lon="5.59044">
        <ele>1144.5</ele>
        <time>2021-09-30T09:05:17Z</time>
      </trkpt>
      <trkpt lat="44.3104" lon="5.59062">
        <ele>1142.6</ele>
        <time>2021-09-30T09:05:35Z</time>
      </trkpt>
      <trkpt lat="44.31048" lon="5.59067">
        <ele>1140.6</ele>
        <time>2021-09-30T09:05:41Z</time>
      </trkpt>
      <trkpt lat="44.31052" lon="5.5907">
        <ele>1139.6</ele>
        <time>2021-09-30T09:05:45Z</time>
      </trkpt>
      <trkpt lat="44.31066" lon="5.5908">
        <ele>1136.1</ele>
        <time>2021-09-30T09:05:58Z</time>
      </trkpt>
      <trkpt lat="44.3108" lon="5.59094">
        <ele>1134.1</ele>
        <time>2021-09-30T09:06:12Z</time>
      </trkpt>
      <trkpt lat="44.31083" lon="5.59095">
        <ele>1133.1</ele>
        <time>2021-09-30T09:06:15Z</time>
      </trkpt>
      <trkpt lat="44.31094" lon="5.59104">
        <ele>1134.2</ele>
        <time>2021-09-30T09:06:26Z</time>
      </trkpt>
      <trkpt lat="44.31111" lon="5.59119">
        <ele>1135.6</ele>
        <time>2021-09-30T09:06:44Z</time>
      </trkpt>
      <trkpt lat="44.31113" lon="5.59124">
        <ele>1136.7</ele>
        <time>2021-09-30T09:06:48Z</time>
      </trkpt>
      <trkpt lat="44.31116" lon="5.59128">
        <ele>1137.2</ele>
        <time>2021-09-30T09:06:52Z</time>
      </trkpt>
      <trkpt lat="44.31133" lon="5.5915">
        <ele>1139.1</ele>
        <time>2021-09-30T09:07:12Z</time>
      </trkpt>
      <trkpt lat="44.31147" lon="5.59162">
        <ele>1138.4</ele>
        <time>2021-09-30T09:07:29Z</time>
      </trkpt>
      <trkpt lat="44.3115" lon="5.59163">
        <ele>1137.8</ele>
        <time>2021-09-30T09:07:47Z</time>
      </trkpt>
      <trkpt lat="44.31152" lon="5.59161">
        <ele>1136.8</ele>
        <time>2021-09-30T09:08:34Z</time>
      </trkpt>
      <trkpt lat="44.31153" lon="5.59161">
        <ele>1136.6</ele>
        <time>2021-09-30T09:09:22Z</time>
      </trkpt>
      <trkpt lat="44.31153" lon="5.59164">
        <ele>1137.2</ele>
        <time>2021-09-30T09:10:03Z</time>
      </trkpt>
      <trkpt lat="44.31153" lon="5.59164">
        <ele>1137.2</ele>
        <time>2021-09-30T09:10:41Z</time>
      </trkpt>
      <trkpt lat="44.31153" lon="5.59166">
        <ele>1137.6</ele>
        <time>2021-09-30T09:11:38Z</time>
      </trkpt>
      <trkpt lat="44.31161" lon="5.59166">
        <ele>1135.4</ele>
        <time>2021-09-30T09:11:53Z</time>
      </trkpt>
      <trkpt lat="44.31163" lon="5.59166">
        <ele>1134.9</ele>
        <time>2021-09-30T09:11:57Z</time>
      </trkpt>
      <trkpt lat="44.31166" lon="5.59166">
        <ele>1134.1</ele>
        <time>2021-09-30T09:11:59Z</time>
      </trkpt>
      <trkpt lat="44.31174" lon="5.59141">
        <ele>1130.8</ele>
        <time>2021-09-30T09:12:16Z</time>
      </trkpt>
      <trkpt lat="44.31176" lon="5.59113">
        <ele>1125.6</ele>
        <time>2021-09-30T09:12:38Z</time>
      </trkpt>
      <trkpt lat="44.31186" lon="5.5909">
        <ele>1122.5</ele>
        <time>2021-09-30T09:12:57Z</time>
      </trkpt>
      <trkpt lat="44.31189" lon="5.59084">
        <ele>1121.6</ele>
        <time>2021-09-30T09:13:02Z</time>
      </trkpt>
      <trkpt lat="44.31192" lon="5.59076">
        <ele>1119.9</ele>
        <time>2021-09-30T09:13:08Z</time>
      </trkpt>
      <trkpt lat="44.31199" lon="5.59052">
        <ele>1113.8</ele>
        <time>2021-09-30T09:13:31Z</time>
      </trkpt>
      <trkpt lat="44.31205" lon="5.59025">
        <ele>1106.1</ele>
        <time>2021-09-30T09:13:53Z</time>
      </trkpt>
      <trkpt lat="44.31217" lon="5.59006">
        <ele>1100.6</ele>
        <time>2021-09-30T09:14:11Z</time>
      </trkpt>
      <trkpt lat="44.31234" lon="5.5901">
        <ele>1102.4</ele>
        <time>2021-09-30T09:14:28Z</time>
      </trkpt>
      <trkpt lat="44.31238" lon="5.59012">
        <ele>1103.2</ele>
        <time>2021-09-30T09:14:32Z</time>
      </trkpt>
      <trkpt lat="44.31248" lon="5.59019">
        <ele>1106.2</ele>
        <time>2021-09-30T09:14:43Z</time>
      </trkpt>
      <trkpt lat="44.31264" lon="5.5903">
        <ele>1109.6</ele>
        <time>2021-09-30T09:14:59Z</time>
      </trkpt>
      <trkpt lat="44.31281" lon="5.59036">
        <ele>1110.9</ele>
        <time>2021-09-30T09:15:15Z</time>
      </trkpt>
      <trkpt lat="44.313" lon="5.59038">
        <ele>1110.5</ele>
        <time>2021-09-30T09:15:32Z</time>
      </trkpt>
      <trkpt lat="44.31318" lon="5.59029">
        <ele>1105.6</ele>
        <time>2021-09-30T09:15:51Z</time>
      </trkpt>
      <trkpt lat="44.31319" lon="5.59028">
        <ele>1105.1</ele>
        <time>2021-09-30T09:15:52Z</time>
      </trkpt>
      <trkpt lat="44.31327" lon="5.59016">
        <ele>1099.4</ele>
        <time>2021-09-30T09:16:04Z</time>
      </trkpt>
      <trkpt lat="44.31334" lon="5.5901">
        <ele>1096.1</ele>
        <time>2021-09-30T09:16:11Z</time>
      </trkpt>
      <trkpt lat="44.31351" lon="5.59008">
        <ele>1090.3</ele>
        <time>2021-09-30T09:16:27Z</time>
      </trkpt>
      <trkpt lat="44.31368" lon="5.59022">
        <ele>1090.3</ele>
        <time>2021-09-30T09:16:45Z</time>
      </trkpt>
      <trkpt lat="44.31371" lon="5.59025">
        <ele>1090.4</ele>
        <time>2021-09-30T09:16:48Z</time>
      </trkpt>
      <trkpt lat="44.31382" lon="5.59045">
        <ele>1093.3</ele>
        <time>2021-09-30T09:17:04Z</time>
      </trkpt>
      <trkpt lat="44.31394" lon="5.59071">
        <ele>1096.6</ele>
        <time>2021-09-30T09:17:23Z</time>
      </trkpt>
      <trkpt lat="44.31404" lon="5.59095">
        <ele>1098.2</ele>
        <time>2021-09-30T09:17:42Z</time>
      </trkpt>
      <trkpt lat="44.3141" lon="5.59115">
        <ele>1099.6</ele>
        <time>2021-09-30T09:17:58Z</time>
      </trkpt>
      <trkpt lat="44.3142" lon="5.59138">
        <ele>1098.8</ele>
        <time>2021-09-30T09:18:16Z</time>
      </trkpt>
      <trkpt lat="44.31428" lon="5.5916">
        <ele>1097.7</ele>
        <time>2021-09-30T09:18:32Z</time>
      </trkpt>
      <trkpt lat="44.3143" lon="5.59176">
        <ele>1098.7</ele>
        <time>2021-09-30T09:18:52Z</time>
      </trkpt>
      <trkpt lat="44.31433" lon="5.59182">
        <ele>1097.3</ele>
        <time>2021-09-30T09:19:19Z</time>
      </trkpt>
      <trkpt lat="44.31428" lon="5.59181">
        <ele>1100.6</ele>
        <time>2021-09-30T09:20:20Z</time>
      </trkpt>
      <trkpt lat="44.3143" lon="5.59183">
        <ele>1099.5</ele>
        <time>2021-09-30T09:21:17Z</time>
      </trkpt>
      <trkpt lat="44.31437" lon="5.59191">
        <ele>1095.6</ele>
        <time>2021-09-30T09:21:57Z</time>
      </trkpt>
      <trkpt lat="44.31446" lon="5.5921">
        <ele>1091.8</ele>
        <time>2021-09-30T09:22:14Z</time>
      </trkpt>
      <trkpt lat="44.31454" lon="5.59227">
        <ele>1088.7</ele>
        <time>2021-09-30T09:22:29Z</time>
      </trkpt>
      <trkpt lat="44.31465" lon="5.59251">
        <ele>1084.7</ele>
        <time>2021-09-30T09:22:49Z</time>
      </trkpt>
      <trkpt lat="44.31472" lon="5.59276">
        <ele>1082.1</ele>
        <time>2021-09-30T09:23:07Z</time>
      </trkpt>
      <trkpt lat="44.31479" lon="5.593">
        <ele>1080.1</ele>
        <time>2021-09-30T09:23:23Z</time>
      </trkpt>
      <trkpt lat="44.31484" lon="5.59323">
        <ele>1079.6</ele>
        <time>2021-09-30T09:23:41Z</time>
      </trkpt>
      <trkpt lat="44.31486" lon="5.59344">
        <ele>1078.4</ele>
        <time>2021-09-30T09:23:57Z</time>
      </trkpt>
      <trkpt lat="44.3149" lon="5.59369">
        <ele>1073.8</ele>
        <time>2021-09-30T09:24:16Z</time>
      </trkpt>
      <trkpt lat="44.31489" lon="5.5939">
        <ele>1071.7</ele>
        <time>2021-09-30T09:24:29Z</time>
      </trkpt>
      <trkpt lat="44.3148" lon="5.5941">
        <ele>1071.7</ele>
        <time>2021-09-30T09:24:46Z</time>
      </trkpt>
      <trkpt lat="44.31471" lon="5.59437">
        <ele>1068.8</ele>
        <time>2021-09-30T09:25:07Z</time>
      </trkpt>
      <trkpt lat="44.31461" lon="5.59461">
        <ele>1066.3</ele>
        <time>2021-09-30T09:25:24Z</time>
      </trkpt>
      <trkpt lat="44.31453" lon="5.59488">
        <ele>1062.7</ele>
        <time>2021-09-30T09:25:45Z</time>
      </trkpt>
      <trkpt lat="44.31435" lon="5.59503">
        <ele>1064.6</ele>
        <time>2021-09-30T09:26:06Z</time>
      </trkpt>
      <trkpt lat="44.31412" lon="5.59528">
        <ele>1070</ele>
        <time>2021-09-30T09:26:29Z</time>
      </trkpt>
      <trkpt lat="44.31402" lon="5.59547">
        <ele>1072.6</ele>
        <time>2021-09-30T09:26:50Z</time>
      </trkpt>
      <trkpt lat="44.31407" lon="5.5958">
        <ele>1070.9</ele>
        <time>2021-09-30T09:27:10Z</time>
      </trkpt>
      <trkpt lat="44.31404" lon="5.59603">
        <ele>1072</ele>
        <time>2021-09-30T09:27:30Z</time>
      </trkpt>
      <trkpt lat="44.31397" lon="5.59645">
        <ele>1074.6</ele>
        <time>2021-09-30T09:27:59Z</time>
      </trkpt>
      <trkpt lat="44.314" lon="5.59673">
        <ele>1073.8</ele>
        <time>2021-09-30T09:28:23Z</time>
      </trkpt>
      <trkpt lat="44.31404" lon="5.59688">
        <ele>1072.1</ele>
        <time>2021-09-30T09:28:31Z</time>
      </trkpt>
      <trkpt lat="44.31403" lon="5.597">
        <ele>1072.1</ele>
        <time>2021-09-30T09:28:36Z</time>
      </trkpt>
      <trkpt lat="44.31397" lon="5.59737">
        <ele>1073</ele>
        <time>2021-09-30T09:29:00Z</time>
      </trkpt>
      <trkpt lat="44.31399" lon="5.59764">
        <ele>1071.4</ele>
        <time>2021-09-30T09:29:24Z</time>
      </trkpt>
      <trkpt lat="44.31394" lon="5.59806">
        <ele>1071.2</ele>
        <time>2021-09-30T09:29:49Z</time>
      </trkpt>
      <trkpt lat="44.31394" lon="5.59828">
        <ele>1070.3</ele>
        <time>2021-09-30T09:30:02Z</time>
      </trkpt>
      <trkpt lat="44.31399" lon="5.59849">
        <ele>1067.5</ele>
        <time>2021-09-30T09:30:14Z</time>
      </trkpt>
      <trkpt lat="44.314" lon="5.5988">
        <ele>1065.2</ele>
        <time>2021-09-30T09:30:28Z</time>
      </trkpt>
      <trkpt lat="44.314" lon="5.59899">
        <ele>1063.9</ele>
        <time>2021-09-30T09:30:40Z</time>
      </trkpt>
      <trkpt lat="44.31399" lon="5.59908">
        <ele>1063.7</ele>
        <time>2021-09-30T09:30:45Z</time>
      </trkpt>
      <trkpt lat="44.31401" lon="5.59936">
        <ele>1060.7</ele>
        <time>2021-09-30T09:31:00Z</time>
      </trkpt>
      <trkpt lat="44.31402" lon="5.59961">
        <ele>1058</ele>
        <time>2021-09-30T09:31:15Z</time>
      </trkpt>
      <trkpt lat="44.31397" lon="5.59981">
        <ele>1057.5</ele>
        <time>2021-09-30T09:31:29Z</time>
      </trkpt>
      <trkpt lat="44.31393" lon="5.59993">
        <ele>1057.5</ele>
        <time>2021-09-30T09:31:39Z</time>
      </trkpt>
      <trkpt lat="44.31391" lon="5.59998">
        <ele>1057.6</ele>
        <time>2021-09-30T09:31:42Z</time>
      </trkpt>
      <trkpt lat="44.31385" lon="5.60014">
        <ele>1057.5</ele>
        <time>2021-09-30T09:31:54Z</time>
      </trkpt>
      <trkpt lat="44.31382" lon="5.60018">
        <ele>1057.8</ele>
        <time>2021-09-30T09:31:58Z</time>
      </trkpt>
      <trkpt lat="44.3138" lon="5.60023">
        <ele>1057.6</ele>
        <time>2021-09-30T09:32:02Z</time>
      </trkpt>
      <trkpt lat="44.3138" lon="5.60045">
        <ele>1054.8</ele>
        <time>2021-09-30T09:32:21Z</time>
      </trkpt>
      <trkpt lat="44.31383" lon="5.60036">
        <ele>1055.4</ele>
        <time>2021-09-30T09:32:50Z</time>
      </trkpt>
      <trkpt lat="44.31388" lon="5.60012">
        <ele>1056.9</ele>
        <time>2021-09-30T09:33:11Z</time>
      </trkpt>
      <trkpt lat="44.31395" lon="5.59988">
        <ele>1057.4</ele>
        <time>2021-09-30T09:33:30Z</time>
      </trkpt>
      <trkpt lat="44.31397" lon="5.59982">
        <ele>1057.4</ele>
        <time>2021-09-30T09:33:35Z</time>
      </trkpt>
      <trkpt lat="44.31404" lon="5.59965">
        <ele>1057</ele>
        <time>2021-09-30T09:33:48Z</time>
      </trkpt>
      <trkpt lat="44.31406" lon="5.59946">
        <ele>1058.3</ele>
        <time>2021-09-30T09:34:04Z</time>
      </trkpt>
      <trkpt lat="44.31406" lon="5.59929">
        <ele>1059.9</ele>
        <time>2021-09-30T09:34:22Z</time>
      </trkpt>
      <trkpt lat="44.31405" lon="5.59925">
        <ele>1060.6</ele>
        <time>2021-09-30T09:34:39Z</time>
      </trkpt>
      <trkpt lat="44.31391" lon="5.59936">
        <ele>1063.5</ele>
        <time>2021-09-30T09:35:07Z</time>
      </trkpt>
      <trkpt lat="44.31385" lon="5.59963">
        <ele>1062.7</ele>
        <time>2021-09-30T09:35:35Z</time>
      </trkpt>
      <trkpt lat="44.31377" lon="5.59983">
        <ele>1063.1</ele>
        <time>2021-09-30T09:35:57Z</time>
      </trkpt>
      <trkpt lat="44.31359" lon="5.60004">
        <ele>1065.9</ele>
        <time>2021-09-30T09:36:24Z</time>
      </trkpt>
      <trkpt lat="44.3134" lon="5.60018">
        <ele>1068.2</ele>
        <time>2021-09-30T09:36:46Z</time>
      </trkpt>
      <trkpt lat="44.31337" lon="5.6002">
        <ele>1068.5</ele>
        <time>2021-09-30T09:36:49Z</time>
      </trkpt>
      <trkpt lat="44.31322" lon="5.6004">
        <ele>1068.8</ele>
        <time>2021-09-30T09:37:10Z</time>
      </trkpt>
      <trkpt lat="44.31311" lon="5.60073">
        <ele>1064.5</ele>
        <time>2021-09-30T09:37:34Z</time>
      </trkpt>
      <trkpt lat="44.31302" lon="5.6008">
        <ele>1065.6</ele>
        <time>2021-09-30T09:37:47Z</time>
      </trkpt>
      <trkpt lat="44.31287" lon="5.601">
        <ele>1065.2</ele>
        <time>2021-09-30T09:38:12Z</time>
      </trkpt>
      <trkpt lat="44.31262" lon="5.60123">
        <ele>1065.9</ele>
        <time>2021-09-30T09:38:39Z</time>
      </trkpt>
      <trkpt lat="44.31249" lon="5.60138">
        <ele>1064.9</ele>
        <time>2021-09-30T09:39:02Z</time>
      </trkpt>
      <trkpt lat="44.31227" lon="5.60142">
        <ele>1069.3</ele>
        <time>2021-09-30T09:39:18Z</time>
      </trkpt>
      <trkpt lat="44.31215" lon="5.6015">
        <ele>1069.7</ele>
        <time>2021-09-30T09:40:05Z</time>
      </trkpt>
      <trkpt lat="44.31211" lon="5.60157">
        <ele>1068.2</ele>
        <time>2021-09-30T09:40:35Z</time>
      </trkpt>
      <trkpt lat="44.31202" lon="5.6017">
        <ele>1065.9</ele>
        <time>2021-09-30T09:40:53Z</time>
      </trkpt>
      <trkpt lat="44.31193" lon="5.60176">
        <ele>1066.2</ele>
        <time>2021-09-30T09:41:16Z</time>
      </trkpt>
      <trkpt lat="44.31187" lon="5.60184">
        <ele>1065.2</ele>
        <time>2021-09-30T09:41:41Z</time>
      </trkpt>
      <trkpt lat="44.31184" lon="5.60186">
        <ele>1065.2</ele>
        <time>2021-09-30T09:41:48Z</time>
      </trkpt>
      <trkpt lat="44.31168" lon="5.60202">
        <ele>1064.1</ele>
        <time>2021-09-30T09:42:16Z</time>
      </trkpt>
      <trkpt lat="44.31147" lon="5.60211">
        <ele>1064.8</ele>
        <time>2021-09-30T09:42:42Z</time>
      </trkpt>
      <trkpt lat="44.31119" lon="5.60216">
        <ele>1067.6</ele>
        <time>2021-09-30T09:43:05Z</time>
      </trkpt>
      <trkpt lat="44.31099" lon="5.6022">
        <ele>1069.2</ele>
        <time>2021-09-30T09:43:32Z</time>
      </trkpt>
      <trkpt lat="44.31081" lon="5.60216">
        <ele>1072.9</ele>
        <time>2021-09-30T09:43:54Z</time>
      </trkpt>
      <trkpt lat="44.31079" lon="5.60217">
        <ele>1072.5</ele>
        <time>2021-09-30T09:43:56Z</time>
      </trkpt>
      <trkpt lat="44.31057" lon="5.6021">
        <ele>1074.1</ele>
        <time>2021-09-30T09:44:42Z</time>
      </trkpt>
      <trkpt lat="44.31055" lon="5.6021">
        <ele>1074</ele>
        <time>2021-09-30T09:45:39Z</time>
      </trkpt>
      <trkpt lat="44.3104" lon="5.60206">
        <ele>1074.8</ele>
        <time>2021-09-30T09:46:01Z</time>
      </trkpt>
      <trkpt lat="44.31018" lon="5.60188">
        <ele>1080.3</ele>
        <time>2021-09-30T09:46:29Z</time>
      </trkpt>
      <trkpt lat="44.31001" lon="5.60186">
        <ele>1080.1</ele>
        <time>2021-09-30T09:46:51Z</time>
      </trkpt>
      <trkpt lat="44.30985" lon="5.60181">
        <ele>1080</ele>
        <time>2021-09-30T09:47:17Z</time>
      </trkpt>
      <trkpt lat="44.3096" lon="5.60174">
        <ele>1079</ele>
        <time>2021-09-30T09:47:42Z</time>
      </trkpt>
      <trkpt lat="44.30946" lon="5.60154">
        <ele>1082.4</ele>
        <time>2021-09-30T09:48:11Z</time>
      </trkpt>
      <trkpt lat="44.30934" lon="5.60147">
        <ele>1081.9</ele>
        <time>2021-09-30T09:48:33Z</time>
      </trkpt>
      <trkpt lat="44.30921" lon="5.60134">
        <ele>1081.9</ele>
        <time>2021-09-30T09:48:57Z</time>
      </trkpt>
      <trkpt lat="44.3092" lon="5.60133">
        <ele>1081.8</ele>
        <time>2021-09-30T09:48:59Z</time>
      </trkpt>
      <trkpt lat="44.30906" lon="5.60123">
        <ele>1080.7</ele>
        <time>2021-09-30T09:49:20Z</time>
      </trkpt>
      <trkpt lat="44.30884" lon="5.60113">
        <ele>1078.1</ele>
        <time>2021-09-30T09:49:43Z</time>
      </trkpt>
      <trkpt lat="44.30861" lon="5.60101">
        <ele>1075.6</ele>
        <time>2021-09-30T09:50:08Z</time>
      </trkpt>
      <trkpt lat="44.30836" lon="5.60099">
        <ele>1070.9</ele>
        <time>2021-09-30T09:50:33Z</time>
      </trkpt>
      <trkpt lat="44.30812" lon="5.60101">
        <ele>1068.1</ele>
        <time>2021-09-30T09:50:56Z</time>
      </trkpt>
      <trkpt lat="44.30787" lon="5.60101">
        <ele>1065.9</ele>
        <time>2021-09-30T09:51:23Z</time>
      </trkpt>
      <trkpt lat="44.30755" lon="5.60103">
        <ele>1062.7</ele>
        <time>2021-09-30T09:51:55Z</time>
      </trkpt>
      <trkpt lat="44.30737" lon="5.60106">
        <ele>1060.5</ele>
        <time>2021-09-30T09:52:15Z</time>
      </trkpt>
      <trkpt lat="44.30733" lon="5.60107">
        <ele>1060</ele>
        <time>2021-09-30T09:52:36Z</time>
      </trkpt>
      <trkpt lat="44.3073" lon="5.60099">
        <ele>1061.1</ele>
        <time>2021-09-30T09:53:22Z</time>
      </trkpt>
      <trkpt lat="44.30715" lon="5.60093">
        <ele>1060.7</ele>
        <time>2021-09-30T09:53:48Z</time>
      </trkpt>
      <trkpt lat="44.30698" lon="5.6009">
        <ele>1059.4</ele>
        <time>2021-09-30T09:54:06Z</time>
      </trkpt>
      <trkpt lat="44.30694" lon="5.6009">
        <ele>1059</ele>
        <time>2021-09-30T09:54:10Z</time>
      </trkpt>
      <trkpt lat="44.30682" lon="5.60088">
        <ele>1058</ele>
        <time>2021-09-30T09:54:21Z</time>
      </trkpt>
      <trkpt lat="44.30665" lon="5.60089">
        <ele>1056.1</ele>
        <time>2021-09-30T09:54:38Z</time>
      </trkpt>
      <trkpt lat="44.30658" lon="5.6009">
        <ele>1054.9</ele>
        <time>2021-09-30T09:54:55Z</time>
      </trkpt>
      <trkpt lat="44.30653" lon="5.60092">
        <ele>1053.9</ele>
        <time>2021-09-30T09:55:20Z</time>
      </trkpt>
      <trkpt lat="44.3065" lon="5.60101">
        <ele>1052.5</ele>
        <time>2021-09-30T09:55:38Z</time>
      </trkpt>
      <trkpt lat="44.3064" lon="5.60113">
        <ele>1050</ele>
        <time>2021-09-30T09:55:54Z</time>
      </trkpt>
      <trkpt lat="44.30631" lon="5.6011">
        <ele>1049.1</ele>
        <time>2021-09-30T09:56:05Z</time>
      </trkpt>
      <trkpt lat="44.30613" lon="5.60096">
        <ele>1047.7</ele>
        <time>2021-09-30T09:56:26Z</time>
      </trkpt>
      <trkpt lat="44.30595" lon="5.60077">
        <ele>1046</ele>
        <time>2021-09-30T09:56:48Z</time>
      </trkpt>
      <trkpt lat="44.30573" lon="5.60058">
        <ele>1042.6</ele>
        <time>2021-09-30T09:57:12Z</time>
      </trkpt>
      <trkpt lat="44.30552" lon="5.60064">
        <ele>1039.1</ele>
        <time>2021-09-30T09:57:33Z</time>
      </trkpt>
      <trkpt lat="44.30539" lon="5.60071">
        <ele>1037</ele>
        <time>2021-09-30T09:57:50Z</time>
      </trkpt>
      <trkpt lat="44.30532" lon="5.60074">
        <ele>1035.9</ele>
        <time>2021-09-30T09:58:08Z</time>
      </trkpt>
      <trkpt lat="44.30521" lon="5.60078">
        <ele>1034.2</ele>
        <time>2021-09-30T09:58:26Z</time>
      </trkpt>
      <trkpt lat="44.305" lon="5.60081">
        <ele>1030.9</ele>
        <time>2021-09-30T09:58:47Z</time>
      </trkpt>
      <trkpt lat="44.3049" lon="5.60083">
        <ele>1029.1</ele>
        <time>2021-09-30T09:59:06Z</time>
      </trkpt>
      <trkpt lat="44.30467" lon="5.60085">
        <ele>1024.7</ele>
        <time>2021-09-30T09:59:29Z</time>
      </trkpt>
      <trkpt lat="44.30453" lon="5.60087">
        <ele>1022.1</ele>
        <time>2021-09-30T09:59:45Z</time>
      </trkpt>
      <trkpt lat="44.30433" lon="5.60086">
        <ele>1018.3</ele>
        <time>2021-09-30T10:00:06Z</time>
      </trkpt>
      <trkpt lat="44.30423" lon="5.60077">
        <ele>1015.9</ele>
        <time>2021-09-30T10:00:22Z</time>
      </trkpt>
      <trkpt lat="44.30419" lon="5.60078">
        <ele>1015.2</ele>
        <time>2021-09-30T10:00:47Z</time>
      </trkpt>
      <trkpt lat="44.30423" lon="5.60095">
        <ele>1016.9</ele>
        <time>2021-09-30T10:01:04Z</time>
      </trkpt>
      <trkpt lat="44.30427" lon="5.60098">
        <ele>1017.7</ele>
        <time>2021-09-30T10:01:10Z</time>
      </trkpt>
      <trkpt lat="44.30431" lon="5.60099">
        <ele>1018.5</ele>
        <time>2021-09-30T10:01:14Z</time>
      </trkpt>
      <trkpt lat="44.30442" lon="5.60117">
        <ele>1021.1</ele>
        <time>2021-09-30T10:01:33Z</time>
      </trkpt>
      <trkpt lat="44.30438" lon="5.60136">
        <ele>1021.3</ele>
        <time>2021-09-30T10:01:50Z</time>
      </trkpt>
      <trkpt lat="44.30443" lon="5.60153">
        <ele>1022.7</ele>
        <time>2021-09-30T10:02:07Z</time>
      </trkpt>
      <trkpt lat="44.30445" lon="5.60157">
        <ele>1023.1</ele>
        <time>2021-09-30T10:02:10Z</time>
      </trkpt>
      <trkpt lat="44.30451" lon="5.60186">
        <ele>1024.3</ele>
        <time>2021-09-30T10:02:30Z</time>
      </trkpt>
      <trkpt lat="44.30441" lon="5.6021">
        <ele>1024.1</ele>
        <time>2021-09-30T10:02:48Z</time>
      </trkpt>
      <trkpt lat="44.30424" lon="5.6022">
        <ele>1024</ele>
        <time>2021-09-30T10:03:06Z</time>
      </trkpt>
      <trkpt lat="44.30407" lon="5.60232">
        <ele>1026.8</ele>
        <time>2021-09-30T10:03:23Z</time>
      </trkpt>
      <trkpt lat="44.3039" lon="5.60242">
        <ele>1031.4</ele>
        <time>2021-09-30T10:03:39Z</time>
      </trkpt>
      <trkpt lat="44.30375" lon="5.60258">
        <ele>1035.6</ele>
        <time>2021-09-30T10:03:57Z</time>
      </trkpt>
      <trkpt lat="44.3037" lon="5.60273">
        <ele>1037</ele>
        <time>2021-09-30T10:04:09Z</time>
      </trkpt>
      <trkpt lat="44.30362" lon="5.60294">
        <ele>1039.5</ele>
        <time>2021-09-30T10:04:27Z</time>
      </trkpt>
      <trkpt lat="44.30356" lon="5.60311">
        <ele>1041.6</ele>
        <time>2021-09-30T10:04:43Z</time>
      </trkpt>
      <trkpt lat="44.30346" lon="5.60322">
        <ele>1044.8</ele>
        <time>2021-09-30T10:05:02Z</time>
      </trkpt>
      <trkpt lat="44.30341" lon="5.60293">
        <ele>1045</ele>
        <time>2021-09-30T10:05:24Z</time>
      </trkpt>
      <trkpt lat="44.30334" lon="5.60264">
        <ele>1045.5</ele>
        <time>2021-09-30T10:05:49Z</time>
      </trkpt>
      <trkpt lat="44.3033" lon="5.60235">
        <ele>1044.6</ele>
        <time>2021-09-30T10:06:12Z</time>
      </trkpt>
      <trkpt lat="44.3032" lon="5.6022">
        <ele>1046.2</ele>
        <time>2021-09-30T10:06:31Z</time>
      </trkpt>
      <trkpt lat="44.30305" lon="5.6021">
        <ele>1049.8</ele>
        <time>2021-09-30T10:06:56Z</time>
      </trkpt>
      <trkpt lat="44.30293" lon="5.60192">
        <ele>1050.7</ele>
        <time>2021-09-30T10:07:20Z</time>
      </trkpt>
      <trkpt lat="44.30279" lon="5.6017">
        <ele>1050.9</ele>
        <time>2021-09-30T10:07:42Z</time>
      </trkpt>
      <trkpt lat="44.30267" lon="5.60157">
        <ele>1051.2</ele>
        <time>2021-09-30T10:07:59Z</time>
      </trkpt>
      <trkpt lat="44.30248" lon="5.60151">
        <ele>1054</ele>
        <time>2021-09-30T10:08:24Z</time>
      </trkpt>
      <trkpt lat="44.30254" lon="5.60173">
        <ele>1058.3</ele>
        <time>2021-09-30T10:08:45Z</time>
      </trkpt>
      <trkpt lat="44.30256" lon="5.60175">
        <ele>1058.2</ele>
        <time>2021-09-30T10:08:47Z</time>
      </trkpt>
      <trkpt lat="44.30268" lon="5.60193">
        <ele>1058.3</ele>
        <time>2021-09-30T10:09:08Z</time>
      </trkpt>
      <trkpt lat="44.30274" lon="5.60215">
        <ele>1060.6</ele>
        <time>2021-09-30T10:09:28Z</time>
      </trkpt>
      <trkpt lat="44.30276" lon="5.60235">
        <ele>1063.6</ele>
        <time>2021-09-30T10:09:45Z</time>
      </trkpt>
      <trkpt lat="44.30277" lon="5.60255">
        <ele>1066.3</ele>
        <time>2021-09-30T10:10:02Z</time>
      </trkpt>
      <trkpt lat="44.30277" lon="5.60278">
        <ele>1068</ele>
        <time>2021-09-30T10:10:24Z</time>
      </trkpt>
      <trkpt lat="44.30275" lon="5.60287">
        <ele>1069.4</ele>
        <time>2021-09-30T10:10:32Z</time>
      </trkpt>
      <trkpt lat="44.3027" lon="5.60303">
        <ele>1072.6</ele>
        <time>2021-09-30T10:10:49Z</time>
      </trkpt>
      <trkpt lat="44.30266" lon="5.60294">
        <ele>1073.4</ele>
        <time>2021-09-30T10:11:08Z</time>
      </trkpt>
      <trkpt lat="44.30267" lon="5.60277">
        <ele>1071.7</ele>
        <time>2021-09-30T10:11:22Z</time>
      </trkpt>
      <trkpt lat="44.30267" lon="5.60275">
        <ele>1071.6</ele>
        <time>2021-09-30T10:11:23Z</time>
      </trkpt>
      <trkpt lat="44.30258" lon="5.60257">
        <ele>1073.6</ele>
        <time>2021-09-30T10:11:38Z</time>
      </trkpt>
      <trkpt lat="44.30245" lon="5.60239">
        <ele>1074</ele>
        <time>2021-09-30T10:11:57Z</time>
      </trkpt>
      <trkpt lat="44.30232" lon="5.60229">
        <ele>1072.7</ele>
        <time>2021-09-30T10:12:16Z</time>
      </trkpt>
      <trkpt lat="44.30223" lon="5.60235">
        <ele>1074.8</ele>
        <time>2021-09-30T10:12:35Z</time>
      </trkpt>
      <trkpt lat="44.30229" lon="5.60247">
        <ele>1077.3</ele>
        <time>2021-09-30T10:12:49Z</time>
      </trkpt>
      <trkpt lat="44.30234" lon="5.60259">
        <ele>1078.6</ele>
        <time>2021-09-30T10:13:07Z</time>
      </trkpt>
      <trkpt lat="44.30235" lon="5.60276">
        <ele>1080.4</ele>
        <time>2021-09-30T10:13:22Z</time>
      </trkpt>
      <trkpt lat="44.30235" lon="5.60279">
        <ele>1080.7</ele>
        <time>2021-09-30T10:13:24Z</time>
      </trkpt>
      <trkpt lat="44.3023" lon="5.60302">
        <ele>1084.2</ele>
        <time>2021-09-30T10:13:44Z</time>
      </trkpt>
      <trkpt lat="44.30225" lon="5.60325">
        <ele>1088.2</ele>
        <time>2021-09-30T10:14:04Z</time>
      </trkpt>
      <trkpt lat="44.30219" lon="5.60314">
        <ele>1088.1</ele>
        <time>2021-09-30T10:14:20Z</time>
      </trkpt>
      <trkpt lat="44.30208" lon="5.60284">
        <ele>1085.6</ele>
        <time>2021-09-30T10:14:43Z</time>
      </trkpt>
      <trkpt lat="44.302" lon="5.60287">
        <ele>1087.4</ele>
        <time>2021-09-30T10:14:57Z</time>
      </trkpt>
      <trkpt lat="44.30203" lon="5.60308">
        <ele>1090.5</ele>
        <time>2021-09-30T10:15:14Z</time>
      </trkpt>
      <trkpt lat="44.30205" lon="5.60328">
        <ele>1093.4</ele>
        <time>2021-09-30T10:15:31Z</time>
      </trkpt>
      <trkpt lat="44.30206" lon="5.60353">
        <ele>1096.1</ele>
        <time>2021-09-30T10:15:52Z</time>
      </trkpt>
      <trkpt lat="44.30199" lon="5.60377">
        <ele>1100.2</ele>
        <time>2021-09-30T10:16:11Z</time>
      </trkpt>
      <trkpt lat="44.30193" lon="5.6039">
        <ele>1103</ele>
        <time>2021-09-30T10:16:25Z</time>
      </trkpt>
      <trkpt lat="44.30183" lon="5.60409">
        <ele>1107.3</ele>
        <time>2021-09-30T10:16:41Z</time>
      </trkpt>
      <trkpt lat="44.30173" lon="5.60427">
        <ele>1111.1</ele>
        <time>2021-09-30T10:16:59Z</time>
      </trkpt>
      <trkpt lat="44.30173" lon="5.60429">
        <ele>1111.2</ele>
        <time>2021-09-30T10:17:01Z</time>
      </trkpt>
      <trkpt lat="44.30175" lon="5.60445">
        <ele>1111.7</ele>
        <time>2021-09-30T10:17:13Z</time>
      </trkpt>
      <trkpt lat="44.30178" lon="5.60465">
        <ele>1112.3</ele>
        <time>2021-09-30T10:17:30Z</time>
      </trkpt>
      <trkpt lat="44.30186" lon="5.60482">
        <ele>1112.1</ele>
        <time>2021-09-30T10:17:46Z</time>
      </trkpt>
      <trkpt lat="44.30198" lon="5.60499">
        <ele>1111.8</ele>
        <time>2021-09-30T10:18:05Z</time>
      </trkpt>
      <trkpt lat="44.30189" lon="5.60507">
        <ele>1112.7</ele>
        <time>2021-09-30T10:18:22Z</time>
      </trkpt>
      <trkpt lat="44.30174" lon="5.60505">
        <ele>1114.8</ele>
        <time>2021-09-30T10:18:39Z</time>
      </trkpt>
      <trkpt lat="44.30158" lon="5.60502">
        <ele>1113.3</ele>
        <time>2021-09-30T10:18:57Z</time>
      </trkpt>
      <trkpt lat="44.3015" lon="5.60502">
        <ele>1110.8</ele>
        <time>2021-09-30T10:19:16Z</time>
      </trkpt>
      <trkpt lat="44.30149" lon="5.6051">
        <ele>1109.8</ele>
        <time>2021-09-30T10:19:37Z</time>
      </trkpt>
      <trkpt lat="44.30151" lon="5.60509">
        <ele>1110.5</ele>
        <time>2021-09-30T10:20:07Z</time>
      </trkpt>
      <trkpt lat="44.30151" lon="5.60506">
        <ele>1110.8</ele>
        <time>2021-09-30T10:21:06Z</time>
      </trkpt>
      <trkpt lat="44.30155" lon="5.60505">
        <ele>1112.1</ele>
        <time>2021-09-30T10:21:35Z</time>
      </trkpt>
      <trkpt lat="44.30156" lon="5.60506">
        <ele>1112.4</ele>
        <time>2021-09-30T10:21:49Z</time>
      </trkpt>
      <trkpt lat="44.30156" lon="5.60501">
        <ele>1112.7</ele>
        <time>2021-09-30T10:22:15Z</time>
      </trkpt>
      <trkpt lat="44.30156" lon="5.60504">
        <ele>1112.5</ele>
        <time>2021-09-30T10:22:38Z</time>
      </trkpt>
      <trkpt lat="44.30152" lon="5.60503">
        <ele>1111.3</ele>
        <time>2021-09-30T10:23:05Z</time>
      </trkpt>
      <trkpt lat="44.30154" lon="5.60504">
        <ele>1111.9</ele>
        <time>2021-09-30T10:29:03Z</time>
      </trkpt>
      <trkpt lat="44.30155" lon="5.60503">
        <ele>1112.3</ele>
        <time>2021-09-30T10:39:40Z</time>
      </trkpt>
      <trkpt lat="44.30155" lon="5.60503">
        <ele>1112.3</ele>
        <time>2021-09-30T10:42:57Z</time>
      </trkpt>
      <trkpt lat="44.30154" lon="5.60503">
        <ele>1112</ele>
        <time>2021-09-30T10:48:47Z</time>
      </trkpt>
      <trkpt lat="44.30156" lon="5.60504">
        <ele>1112.5</ele>
        <time>2021-09-30T10:50:43Z</time>
      </trkpt>
      <trkpt lat="44.30158" lon="5.60503">
        <ele>1113.2</ele>
        <time>2021-09-30T10:51:45Z</time>
      </trkpt>
      <trkpt lat="44.30155" lon="5.60499">
        <ele>1112.5</ele>
        <time>2021-09-30T10:53:08Z</time>
      </trkpt>
      <trkpt lat="44.30157" lon="5.605">
        <ele>1113.1</ele>
        <time>2021-09-30T10:54:22Z</time>
      </trkpt>
      <trkpt lat="44.30157" lon="5.60502">
        <ele>1113</ele>
        <time>2021-09-30T10:55:54Z</time>
      </trkpt>
      <trkpt lat="44.30154" lon="5.605">
        <ele>1112.2</ele>
        <time>2021-09-30T10:56:51Z</time>
      </trkpt>
      <trkpt lat="44.30152" lon="5.60503">
        <ele>1111.3</ele>
        <time>2021-09-30T10:59:22Z</time>
      </trkpt>
      <trkpt lat="44.30156" lon="5.60503">
        <ele>1112.6</ele>
        <time>2021-09-30T11:00:59Z</time>
      </trkpt>
      <trkpt lat="44.30154" lon="5.60502">
        <ele>1112</ele>
        <time>2021-09-30T11:03:18Z</time>
      </trkpt>
      <trkpt lat="44.30153" lon="5.60502">
        <ele>1111.7</ele>
        <time>2021-09-30T11:04:04Z</time>
      </trkpt>
      <trkpt lat="44.30153" lon="5.605">
        <ele>1111.9</ele>
        <time>2021-09-30T11:06:12Z</time>
      </trkpt>
      <trkpt lat="44.30147" lon="5.60497">
        <ele>1110.1</ele>
        <time>2021-09-30T11:06:25Z</time>
      </trkpt>
      <trkpt lat="44.30145" lon="5.60498">
        <ele>1109.5</ele>
        <time>2021-09-30T11:06:51Z</time>
      </trkpt>
      <trkpt lat="44.30147" lon="5.605">
        <ele>1110.1</ele>
        <time>2021-09-30T11:07:20Z</time>
      </trkpt>
      <trkpt lat="44.30149" lon="5.60503">
        <ele>1110.4</ele>
        <time>2021-09-30T11:07:47Z</time>
      </trkpt>
      <trkpt lat="44.30144" lon="5.60496">
        <ele>1109.2</ele>
        <time>2021-09-30T11:08:09Z</time>
      </trkpt>
      <trkpt lat="44.3014" lon="5.6049">
        <ele>1108.2</ele>
        <time>2021-09-30T11:08:28Z</time>
      </trkpt>
      <trkpt lat="44.3014" lon="5.60495">
        <ele>1108.1</ele>
        <time>2021-09-30T11:09:07Z</time>
      </trkpt>
      <trkpt lat="44.30139" lon="5.60492">
        <ele>1107.9</ele>
        <time>2021-09-30T11:09:29Z</time>
      </trkpt>
      <trkpt lat="44.30139" lon="5.60487">
        <ele>1108</ele>
        <time>2021-09-30T11:10:17Z</time>
      </trkpt>
      <trkpt lat="44.30141" lon="5.60486">
        <ele>1108.6</ele>
        <time>2021-09-30T11:11:04Z</time>
      </trkpt>
      <trkpt lat="44.30137" lon="5.60492">
        <ele>1107.3</ele>
        <time>2021-09-30T11:12:22Z</time>
      </trkpt>
      <trkpt lat="44.30139" lon="5.60492">
        <ele>1107.9</ele>
        <time>2021-09-30T11:13:00Z</time>
      </trkpt>
      <trkpt lat="44.30135" lon="5.60493">
        <ele>1106.7</ele>
        <time>2021-09-30T11:13:31Z</time>
      </trkpt>
      <trkpt lat="44.3014" lon="5.60497">
        <ele>1108.1</ele>
        <time>2021-09-30T11:14:12Z</time>
      </trkpt>
      <trkpt lat="44.30143" lon="5.60497">
        <ele>1108.9</ele>
        <time>2021-09-30T11:14:30Z</time>
      </trkpt>
      <trkpt lat="44.30144" lon="5.60498">
        <ele>1109.2</ele>
        <time>2021-09-30T11:15:11Z</time>
      </trkpt>
      <trkpt lat="44.30146" lon="5.605">
        <ele>1109.8</ele>
        <time>2021-09-30T11:16:18Z</time>
      </trkpt>
      <trkpt lat="44.3015" lon="5.60505">
        <ele>1110.6</ele>
        <time>2021-09-30T11:16:44Z</time>
      </trkpt>
      <trkpt lat="44.30157" lon="5.60526">
        <ele>1111.2</ele>
        <time>2021-09-30T11:17:04Z</time>
      </trkpt>
      <trkpt lat="44.30165" lon="5.60551">
        <ele>1112.8</ele>
        <time>2021-09-30T11:17:27Z</time>
      </trkpt>
      <trkpt lat="44.30163" lon="5.60573">
        <ele>1110.7</ele>
        <time>2021-09-30T11:17:48Z</time>
      </trkpt>
      <trkpt lat="44.30158" lon="5.60589">
        <ele>1107.4</ele>
        <time>2021-09-30T11:18:05Z</time>
      </trkpt>
      <trkpt lat="44.30153" lon="5.60601">
        <ele>1104.6</ele>
        <time>2021-09-30T11:18:24Z</time>
      </trkpt>
      <trkpt lat="44.3015" lon="5.60616">
        <ele>1102.8</ele>
        <time>2021-09-30T11:18:41Z</time>
      </trkpt>
      <trkpt lat="44.30144" lon="5.60646">
        <ele>1099.9</ele>
        <time>2021-09-30T11:19:05Z</time>
      </trkpt>
      <trkpt lat="44.30137" lon="5.60676">
        <ele>1096</ele>
        <time>2021-09-30T11:19:27Z</time>
      </trkpt>
      <trkpt lat="44.30135" lon="5.60686">
        <ele>1094</ele>
        <time>2021-09-30T11:19:36Z</time>
      </trkpt>
      <trkpt lat="44.30142" lon="5.60704">
        <ele>1093.2</ele>
        <time>2021-09-30T11:19:54Z</time>
      </trkpt>
      <trkpt lat="44.30152" lon="5.60713">
        <ele>1094.2</ele>
        <time>2021-09-30T11:20:09Z</time>
      </trkpt>
      <trkpt lat="44.30158" lon="5.60721">
        <ele>1094.1</ele>
        <time>2021-09-30T11:20:20Z</time>
      </trkpt>
      <trkpt lat="44.30152" lon="5.60732">
        <ele>1090.9</ele>
        <time>2021-09-30T11:20:38Z</time>
      </trkpt>
      <trkpt lat="44.30143" lon="5.60733">
        <ele>1089</ele>
        <time>2021-09-30T11:20:53Z</time>
      </trkpt>
      <trkpt lat="44.30132" lon="5.60734">
        <ele>1086.7</ele>
        <time>2021-09-30T11:21:09Z</time>
      </trkpt>
      <trkpt lat="44.30121" lon="5.60737">
        <ele>1084.3</ele>
        <time>2021-09-30T11:21:24Z</time>
      </trkpt>
      <trkpt lat="44.30111" lon="5.6074">
        <ele>1082.2</ele>
        <time>2021-09-30T11:21:39Z</time>
      </trkpt>
      <trkpt lat="44.30102" lon="5.60742">
        <ele>1080.5</ele>
        <time>2021-09-30T11:21:54Z</time>
      </trkpt>
      <trkpt lat="44.30092" lon="5.60742">
        <ele>1078.8</ele>
        <time>2021-09-30T11:22:09Z</time>
      </trkpt>
      <trkpt lat="44.30081" lon="5.6074">
        <ele>1076.3</ele>
        <time>2021-09-30T11:22:26Z</time>
      </trkpt>
      <trkpt lat="44.30068" lon="5.60744">
        <ele>1070.6</ele>
        <time>2021-09-30T11:22:42Z</time>
      </trkpt>
      <trkpt lat="44.30058" lon="5.60749">
        <ele>1066.6</ele>
        <time>2021-09-30T11:22:57Z</time>
      </trkpt>
      <trkpt lat="44.30049" lon="5.60755">
        <ele>1061.8</ele>
        <time>2021-09-30T11:23:12Z</time>
      </trkpt>
      <trkpt lat="44.30041" lon="5.6076">
        <ele>1057.5</ele>
        <time>2021-09-30T11:23:26Z</time>
      </trkpt>
      <trkpt lat="44.30033" lon="5.60766">
        <ele>1053.4</ele>
        <time>2021-09-30T11:23:40Z</time>
      </trkpt>
      <trkpt lat="44.30024" lon="5.60774">
        <ele>1048.9</ele>
        <time>2021-09-30T11:23:55Z</time>
      </trkpt>
      <trkpt lat="44.30014" lon="5.60785">
        <ele>1044.1</ele>
        <time>2021-09-30T11:24:12Z</time>
      </trkpt>
      <trkpt lat="44.30025" lon="5.60794">
        <ele>1045.9</ele>
        <time>2021-09-30T11:24:31Z</time>
      </trkpt>
      <trkpt lat="44.3004" lon="5.60804">
        <ele>1047.6</ele>
        <time>2021-09-30T11:24:50Z</time>
      </trkpt>
      <trkpt lat="44.30053" lon="5.60815">
        <ele>1047.8</ele>
        <time>2021-09-30T11:25:07Z</time>
      </trkpt>
      <trkpt lat="44.30066" lon="5.60826">
        <ele>1046.9</ele>
        <time>2021-09-30T11:25:24Z</time>
      </trkpt>
      <trkpt lat="44.30079" lon="5.60837">
        <ele>1044.8</ele>
        <time>2021-09-30T11:25:41Z</time>
      </trkpt>
      <trkpt lat="44.30092" lon="5.60846">
        <ele>1043.2</ele>
        <time>2021-09-30T11:25:58Z</time>
      </trkpt>
      <trkpt lat="44.3011" lon="5.60864">
        <ele>1039.1</ele>
        <time>2021-09-30T11:26:20Z</time>
      </trkpt>
      <trkpt lat="44.30124" lon="5.60876">
        <ele>1037.1</ele>
        <time>2021-09-30T11:26:39Z</time>
      </trkpt>
      <trkpt lat="44.30139" lon="5.60895">
        <ele>1032.9</ele>
        <time>2021-09-30T11:27:00Z</time>
      </trkpt>
      <trkpt lat="44.30151" lon="5.60912">
        <ele>1029</ele>
        <time>2021-09-30T11:27:19Z</time>
      </trkpt>
      <trkpt lat="44.30161" lon="5.60927">
        <ele>1026.3</ele>
        <time>2021-09-30T11:27:37Z</time>
      </trkpt>
      <trkpt lat="44.30172" lon="5.60944">
        <ele>1021.9</ele>
        <time>2021-09-30T11:27:57Z</time>
      </trkpt>
      <trkpt lat="44.30179" lon="5.60954">
        <ele>1018.2</ele>
        <time>2021-09-30T11:28:08Z</time>
      </trkpt>
      <trkpt lat="44.3019" lon="5.60971">
        <ele>1012.2</ele>
        <time>2021-09-30T11:28:27Z</time>
      </trkpt>
      <trkpt lat="44.30198" lon="5.60976">
        <ele>1010.2</ele>
        <time>2021-09-30T11:28:37Z</time>
      </trkpt>
      <trkpt lat="44.30209" lon="5.60973">
        <ele>1010.2</ele>
        <time>2021-09-30T11:28:49Z</time>
      </trkpt>
      <trkpt lat="44.30227" lon="5.60955">
        <ele>1013.4</ele>
        <time>2021-09-30T11:29:11Z</time>
      </trkpt>
      <trkpt lat="44.30239" lon="5.60936">
        <ele>1016.8</ele>
        <time>2021-09-30T11:29:29Z</time>
      </trkpt>
      <trkpt lat="44.30254" lon="5.60927">
        <ele>1015.9</ele>
        <time>2021-09-30T11:29:52Z</time>
      </trkpt>
      <trkpt lat="44.3025" lon="5.60923">
        <ele>1018.6</ele>
        <time>2021-09-30T11:30:26Z</time>
      </trkpt>
      <trkpt lat="44.30247" lon="5.60917">
        <ele>1020.3</ele>
        <time>2021-09-30T11:31:14Z</time>
      </trkpt>
      <trkpt lat="44.30248" lon="5.60916">
        <ele>1020.4</ele>
        <time>2021-09-30T11:31:51Z</time>
      </trkpt>
      <trkpt lat="44.30242" lon="5.60926">
        <ele>1018.9</ele>
        <time>2021-09-30T11:32:28Z</time>
      </trkpt>
      <trkpt lat="44.3024" lon="5.6093">
        <ele>1018.1</ele>
        <time>2021-09-30T11:32:32Z</time>
      </trkpt>
      <trkpt lat="44.30239" lon="5.60933">
        <ele>1017.5</ele>
        <time>2021-09-30T11:32:34Z</time>
      </trkpt>
      <trkpt lat="44.30237" lon="5.60937">
        <ele>1016.8</ele>
        <time>2021-09-30T11:32:37Z</time>
      </trkpt>
      <trkpt lat="44.30228" lon="5.60954">
        <ele>1013.6</ele>
        <time>2021-09-30T11:32:51Z</time>
      </trkpt>
      <trkpt lat="44.30218" lon="5.60968">
        <ele>1010.9</ele>
        <time>2021-09-30T11:33:04Z</time>
      </trkpt>
      <trkpt lat="44.30216" lon="5.60969">
        <ele>1010.8</ele>
        <time>2021-09-30T11:33:06Z</time>
      </trkpt>
      <trkpt lat="44.3021" lon="5.60975">
        <ele>1009.6</ele>
        <time>2021-09-30T11:33:13Z</time>
      </trkpt>
      <trkpt lat="44.30208" lon="5.60976">
        <ele>1009.5</ele>
        <time>2021-09-30T11:33:15Z</time>
      </trkpt>
      <trkpt lat="44.30196" lon="5.60974">
        <ele>1010.9</ele>
        <time>2021-09-30T11:33:31Z</time>
      </trkpt>
      <trkpt lat="44.30185" lon="5.60963">
        <ele>1015</ele>
        <time>2021-09-30T11:33:48Z</time>
      </trkpt>
      <trkpt lat="44.30176" lon="5.60954">
        <ele>1018.5</ele>
        <time>2021-09-30T11:34:15Z</time>
      </trkpt>
      <trkpt lat="44.30168" lon="5.60947">
        <ele>1021.4</ele>
        <time>2021-09-30T11:34:30Z</time>
      </trkpt>
      <trkpt lat="44.30156" lon="5.60938">
        <ele>1021.4</ele>
        <time>2021-09-30T11:34:49Z</time>
      </trkpt>
      <trkpt lat="44.30155" lon="5.60937">
        <ele>1021.4</ele>
        <time>2021-09-30T11:34:50Z</time>
      </trkpt>
      <trkpt lat="44.30145" lon="5.60931">
        <ele>1020.8</ele>
        <time>2021-09-30T11:35:04Z</time>
      </trkpt>
      <trkpt lat="44.30137" lon="5.60928">
        <ele>1019.8</ele>
        <time>2021-09-30T11:35:11Z</time>
      </trkpt>
      <trkpt lat="44.30124" lon="5.60921">
        <ele>1019.1</ele>
        <time>2021-09-30T11:35:29Z</time>
      </trkpt>
      <trkpt lat="44.30104" lon="5.60914">
        <ele>1017.1</ele>
        <time>2021-09-30T11:35:50Z</time>
      </trkpt>
      <trkpt lat="44.30098" lon="5.60912">
        <ele>1016.5</ele>
        <time>2021-09-30T11:35:56Z</time>
      </trkpt>
      <trkpt lat="44.30091" lon="5.6091">
        <ele>1015.7</ele>
        <time>2021-09-30T11:36:01Z</time>
      </trkpt>
      <trkpt lat="44.30076" lon="5.60904">
        <ele>1015.3</ele>
        <time>2021-09-30T11:36:18Z</time>
      </trkpt>
      <trkpt lat="44.3006" lon="5.609">
        <ele>1014.4</ele>
        <time>2021-09-30T11:36:35Z</time>
      </trkpt>
      <trkpt lat="44.30051" lon="5.609">
        <ele>1013</ele>
        <time>2021-09-30T11:36:43Z</time>
      </trkpt>
      <trkpt lat="44.30031" lon="5.60898">
        <ele>1010.7</ele>
        <time>2021-09-30T11:37:03Z</time>
      </trkpt>
      <trkpt lat="44.30016" lon="5.60897">
        <ele>1008.8</ele>
        <time>2021-09-30T11:37:18Z</time>
      </trkpt>
      <trkpt lat="44.30001" lon="5.60897">
        <ele>1006.4</ele>
        <time>2021-09-30T11:37:36Z</time>
      </trkpt>
      <trkpt lat="44.29982" lon="5.60896">
        <ele>1003</ele>
        <time>2021-09-30T11:37:54Z</time>
      </trkpt>
      <trkpt lat="44.29977" lon="5.60896">
        <ele>1002</ele>
        <time>2021-09-30T11:37:58Z</time>
      </trkpt>
      <trkpt lat="44.29956" lon="5.60884">
        <ele>1001.8</ele>
        <time>2021-09-30T11:38:16Z</time>
      </trkpt>
      <trkpt lat="44.29938" lon="5.60871">
        <ele>1001.3</ele>
        <time>2021-09-30T11:38:31Z</time>
      </trkpt>
      <trkpt lat="44.29923" lon="5.60861">
        <ele>999.6</ele>
        <time>2021-09-30T11:38:46Z</time>
      </trkpt>
      <trkpt lat="44.29905" lon="5.60854">
        <ele>998.7</ele>
        <time>2021-09-30T11:39:02Z</time>
      </trkpt>
      <trkpt lat="44.29887" lon="5.60838">
        <ele>1000.1</ele>
        <time>2021-09-30T11:39:23Z</time>
      </trkpt>
      <trkpt lat="44.29891" lon="5.60815">
        <ele>998.3</ele>
        <time>2021-09-30T11:39:44Z</time>
      </trkpt>
      <trkpt lat="44.29893" lon="5.60794">
        <ele>995.4</ele>
        <time>2021-09-30T11:40:04Z</time>
      </trkpt>
      <trkpt lat="44.29902" lon="5.60779">
        <ele>995.2</ele>
        <time>2021-09-30T11:40:23Z</time>
      </trkpt>
      <trkpt lat="44.29907" lon="5.60762">
        <ele>994.4</ele>
        <time>2021-09-30T11:40:40Z</time>
      </trkpt>
      <trkpt lat="44.29908" lon="5.60754">
        <ele>993.8</ele>
        <time>2021-09-30T11:40:46Z</time>
      </trkpt>
      <trkpt lat="44.29911" lon="5.6073">
        <ele>989.1</ele>
        <time>2021-09-30T11:41:02Z</time>
      </trkpt>
      <trkpt lat="44.29915" lon="5.6072">
        <ele>987.9</ele>
        <time>2021-09-30T11:41:10Z</time>
      </trkpt>
      <trkpt lat="44.29918" lon="5.60714">
        <ele>987.7</ele>
        <time>2021-09-30T11:41:17Z</time>
      </trkpt>
      <trkpt lat="44.29927" lon="5.60692">
        <ele>987.1</ele>
        <time>2021-09-30T11:41:36Z</time>
      </trkpt>
      <trkpt lat="44.29927" lon="5.60691">
        <ele>986.9</ele>
        <time>2021-09-30T11:41:37Z</time>
      </trkpt>
      <trkpt lat="44.29927" lon="5.60686">
        <ele>985.6</ele>
        <time>2021-09-30T11:41:40Z</time>
      </trkpt>
      <trkpt lat="44.29931" lon="5.60663">
        <ele>982.9</ele>
        <time>2021-09-30T11:41:57Z</time>
      </trkpt>
      <trkpt lat="44.29933" lon="5.60648">
        <ele>984.1</ele>
        <time>2021-09-30T11:42:11Z</time>
      </trkpt>
      <trkpt lat="44.29934" lon="5.60624">
        <ele>984.7</ele>
        <time>2021-09-30T11:42:29Z</time>
      </trkpt>
      <trkpt lat="44.29934" lon="5.60597">
        <ele>984.7</ele>
        <time>2021-09-30T11:42:46Z</time>
      </trkpt>
      <trkpt lat="44.29927" lon="5.60584">
        <ele>981.2</ele>
        <time>2021-09-30T11:42:59Z</time>
      </trkpt>
      <trkpt lat="44.29908" lon="5.60566">
        <ele>976.7</ele>
        <time>2021-09-30T11:43:21Z</time>
      </trkpt>
      <trkpt lat="44.29892" lon="5.6054">
        <ele>976.3</ele>
        <time>2021-09-30T11:43:45Z</time>
      </trkpt>
      <trkpt lat="44.29891" lon="5.60539">
        <ele>976.1</ele>
        <time>2021-09-30T11:43:47Z</time>
      </trkpt>
      <trkpt lat="44.29877" lon="5.60516">
        <ele>975.4</ele>
        <time>2021-09-30T11:44:08Z</time>
      </trkpt>
      <trkpt lat="44.29865" lon="5.6049">
        <ele>977.1</ele>
        <time>2021-09-30T11:44:31Z</time>
      </trkpt>
      <trkpt lat="44.29859" lon="5.60485">
        <ele>976.3</ele>
        <time>2021-09-30T11:44:39Z</time>
      </trkpt>
      <trkpt lat="44.2984" lon="5.60482">
        <ele>969.5</ele>
        <time>2021-09-30T11:45:01Z</time>
      </trkpt>
      <trkpt lat="44.2982" lon="5.60479">
        <ele>964.2</ele>
        <time>2021-09-30T11:45:23Z</time>
      </trkpt>
      <trkpt lat="44.29805" lon="5.60483">
        <ele>958.8</ele>
        <time>2021-09-30T11:45:43Z</time>
      </trkpt>
      <trkpt lat="44.29805" lon="5.60483">
        <ele>958.8</ele>
        <time>2021-09-30T11:45:44Z</time>
      </trkpt>
      <trkpt lat="44.2979" lon="5.60478">
        <ele>956.4</ele>
        <time>2021-09-30T11:46:03Z</time>
      </trkpt>
      <trkpt lat="44.29792" lon="5.60491">
        <ele>952.6</ele>
        <time>2021-09-30T11:46:15Z</time>
      </trkpt>
      <trkpt lat="44.29804" lon="5.60505">
        <ele>951.6</ele>
        <time>2021-09-30T11:46:30Z</time>
      </trkpt>
      <trkpt lat="44.29814" lon="5.60523">
        <ele>950.5</ele>
        <time>2021-09-30T11:46:48Z</time>
      </trkpt>
      <trkpt lat="44.29822" lon="5.60538">
        <ele>949.7</ele>
        <time>2021-09-30T11:47:04Z</time>
      </trkpt>
      <trkpt lat="44.29826" lon="5.60551">
        <ele>948.2</ele>
        <time>2021-09-30T11:47:19Z</time>
      </trkpt>
      <trkpt lat="44.2982" lon="5.60571">
        <ele>942.6</ele>
        <time>2021-09-30T11:47:39Z</time>
      </trkpt>
      <trkpt lat="44.29818" lon="5.6058">
        <ele>940.2</ele>
        <time>2021-09-30T11:48:02Z</time>
      </trkpt>
      <trkpt lat="44.29815" lon="5.60586">
        <ele>938.8</ele>
        <time>2021-09-30T11:48:29Z</time>
      </trkpt>
      <trkpt lat="44.29813" lon="5.60587">
        <ele>938.3</ele>
        <time>2021-09-30T11:49:00Z</time>
      </trkpt>
      <trkpt lat="44.29805" lon="5.60579">
        <ele>936.7</ele>
        <time>2021-09-30T11:49:35Z</time>
      </trkpt>
      <trkpt lat="44.29804" lon="5.60574">
        <ele>937.5</ele>
        <time>2021-09-30T11:49:39Z</time>
      </trkpt>
      <trkpt lat="44.29802" lon="5.60558">
        <ele>940.2</ele>
        <time>2021-09-30T11:49:50Z</time>
      </trkpt>
      <trkpt lat="44.29801" lon="5.60554">
        <ele>940.7</ele>
        <time>2021-09-30T11:49:53Z</time>
      </trkpt>
      <trkpt lat="44.29782" lon="5.60539">
        <ele>938.7</ele>
        <time>2021-09-30T11:50:14Z</time>
      </trkpt>
      <trkpt lat="44.29765" lon="5.60537">
        <ele>934.6</ele>
        <time>2021-09-30T11:50:34Z</time>
      </trkpt>
      <trkpt lat="44.29755" lon="5.60538">
        <ele>931.7</ele>
        <time>2021-09-30T11:50:48Z</time>
      </trkpt>
      <trkpt lat="44.29742" lon="5.60535">
        <ele>929.7</ele>
        <time>2021-09-30T11:51:07Z</time>
      </trkpt>
      <trkpt lat="44.29729" lon="5.60529">
        <ele>928.8</ele>
        <time>2021-09-30T11:51:25Z</time>
      </trkpt>
      <trkpt lat="44.29714" lon="5.60517">
        <ele>928.8</ele>
        <time>2021-09-30T11:51:43Z</time>
      </trkpt>
      <trkpt lat="44.29701" lon="5.60505">
        <ele>929.1</ele>
        <time>2021-09-30T11:51:57Z</time>
      </trkpt>
      <trkpt lat="44.29683" lon="5.60499">
        <ele>927.2</ele>
        <time>2021-09-30T11:52:15Z</time>
      </trkpt>
      <trkpt lat="44.29656" lon="5.60487">
        <ele>924.3</ele>
        <time>2021-09-30T11:52:39Z</time>
      </trkpt>
      <trkpt lat="44.29628" lon="5.60469">
        <ele>922.2</ele>
        <time>2021-09-30T11:53:05Z</time>
      </trkpt>
      <trkpt lat="44.29608" lon="5.60449">
        <ele>922.8</ele>
        <time>2021-09-30T11:53:27Z</time>
      </trkpt>
      <trkpt lat="44.29595" lon="5.60428">
        <ele>925.3</ele>
        <time>2021-09-30T11:53:44Z</time>
      </trkpt>
      <trkpt lat="44.29593" lon="5.60423">
        <ele>926.2</ele>
        <time>2021-09-30T11:53:48Z</time>
      </trkpt>
      <trkpt lat="44.29586" lon="5.60408">
        <ele>929.3</ele>
        <time>2021-09-30T11:54:05Z</time>
      </trkpt>
      <trkpt lat="44.29585" lon="5.60406">
        <ele>929.7</ele>
        <time>2021-09-30T11:54:07Z</time>
      </trkpt>
      <trkpt lat="44.29568" lon="5.60379">
        <ele>935.3</ele>
        <time>2021-09-30T11:54:34Z</time>
      </trkpt>
      <trkpt lat="44.29561" lon="5.60371">
        <ele>936.7</ele>
        <time>2021-09-30T11:54:50Z</time>
      </trkpt>
      <trkpt lat="44.29557" lon="5.60369">
        <ele>936.7</ele>
        <time>2021-09-30T11:54:55Z</time>
      </trkpt>
      <trkpt lat="44.2954" lon="5.60358">
        <ele>937.7</ele>
        <time>2021-09-30T11:55:15Z</time>
      </trkpt>
      <trkpt lat="44.29522" lon="5.60349">
        <ele>938.1</ele>
        <time>2021-09-30T11:55:34Z</time>
      </trkpt>
      <trkpt lat="44.29506" lon="5.60346">
        <ele>936.8</ele>
        <time>2021-09-30T11:55:54Z</time>
      </trkpt>
      <trkpt lat="44.29504" lon="5.60346">
        <ele>936.5</ele>
        <time>2021-09-30T11:55:59Z</time>
      </trkpt>
      <trkpt lat="44.29501" lon="5.60346">
        <ele>936</ele>
        <time>2021-09-30T11:56:02Z</time>
      </trkpt>
      <trkpt lat="44.29478" lon="5.6035">
        <ele>925.6</ele>
        <time>2021-09-30T11:56:23Z</time>
      </trkpt>
      <trkpt lat="44.29459" lon="5.60343">
        <ele>920.3</ele>
        <time>2021-09-30T11:56:45Z</time>
      </trkpt>
      <trkpt lat="44.29454" lon="5.60338">
        <ele>919.7</ele>
        <time>2021-09-30T11:56:54Z</time>
      </trkpt>
      <trkpt lat="44.29449" lon="5.60328">
        <ele>920</ele>
        <time>2021-09-30T11:57:10Z</time>
      </trkpt>
      <trkpt lat="44.29446" lon="5.60324">
        <ele>919.4</ele>
        <time>2021-09-30T11:57:14Z</time>
      </trkpt>
      <trkpt lat="44.29439" lon="5.60294">
        <ele>921.4</ele>
        <time>2021-09-30T11:57:37Z</time>
      </trkpt>
      <trkpt lat="44.29435" lon="5.6027">
        <ele>923.3</ele>
        <time>2021-09-30T11:57:56Z</time>
      </trkpt>
      <trkpt lat="44.29426" lon="5.60242">
        <ele>922.5</ele>
        <time>2021-09-30T11:58:19Z</time>
      </trkpt>
      <trkpt lat="44.29416" lon="5.60222">
        <ele>919.7</ele>
        <time>2021-09-30T11:58:39Z</time>
      </trkpt>
      <trkpt lat="44.29396" lon="5.602">
        <ele>912.1</ele>
        <time>2021-09-30T11:59:02Z</time>
      </trkpt>
      <trkpt lat="44.29385" lon="5.60177">
        <ele>910</ele>
        <time>2021-09-30T11:59:22Z</time>
      </trkpt>
      <trkpt lat="44.29372" lon="5.6015">
        <ele>906.4</ele>
        <time>2021-09-30T11:59:44Z</time>
      </trkpt>
      <trkpt lat="44.29359" lon="5.60126">
        <ele>902.4</ele>
        <time>2021-09-30T12:00:06Z</time>
      </trkpt>
      <trkpt lat="44.29348" lon="5.6011">
        <ele>899.1</ele>
        <time>2021-09-30T12:00:23Z</time>
      </trkpt>
      <trkpt lat="44.29339" lon="5.60101">
        <ele>896.2</ele>
        <time>2021-09-30T12:00:37Z</time>
      </trkpt>
      <trkpt lat="44.29328" lon="5.60096">
        <ele>892.1</ele>
        <time>2021-09-30T12:00:54Z</time>
      </trkpt>
      <trkpt lat="44.29317" lon="5.60092">
        <ele>888</ele>
        <time>2021-09-30T12:01:10Z</time>
      </trkpt>
      <trkpt lat="44.29304" lon="5.60089">
        <ele>883.1</ele>
        <time>2021-09-30T12:01:27Z</time>
      </trkpt>
      <trkpt lat="44.29294" lon="5.60085">
        <ele>879.6</ele>
        <time>2021-09-30T12:01:41Z</time>
      </trkpt>
      <trkpt lat="44.29283" lon="5.6008">
        <ele>875.6</ele>
        <time>2021-09-30T12:01:56Z</time>
      </trkpt>
      <trkpt lat="44.29274" lon="5.60078">
        <ele>872.1</ele>
        <time>2021-09-30T12:02:08Z</time>
      </trkpt>
      <trkpt lat="44.29263" lon="5.60073">
        <ele>868</ele>
        <time>2021-09-30T12:02:23Z</time>
      </trkpt>
      <trkpt lat="44.29255" lon="5.60067">
        <ele>865.3</ele>
        <time>2021-09-30T12:02:36Z</time>
      </trkpt>
      <trkpt lat="44.29248" lon="5.60061">
        <ele>863.1</ele>
        <time>2021-09-30T12:02:43Z</time>
      </trkpt>
      <trkpt lat="44.29241" lon="5.60037">
        <ele>862.3</ele>
        <time>2021-09-30T12:03:03Z</time>
      </trkpt>
      <trkpt lat="44.29237" lon="5.6002">
        <ele>862.1</ele>
        <time>2021-09-30T12:03:19Z</time>
      </trkpt>
      <trkpt lat="44.29234" lon="5.59994">
        <ele>862.6</ele>
        <time>2021-09-30T12:03:36Z</time>
      </trkpt>
      <trkpt lat="44.29227" lon="5.59964">
        <ele>859.6</ele>
        <time>2021-09-30T12:03:57Z</time>
      </trkpt>
      <trkpt lat="44.29221" lon="5.59945">
        <ele>857.3</ele>
        <time>2021-09-30T12:04:14Z</time>
      </trkpt>
      <trkpt lat="44.29217" lon="5.59922">
        <ele>855.9</ele>
        <time>2021-09-30T12:04:31Z</time>
      </trkpt>
      <trkpt lat="44.29217" lon="5.59914">
        <ele>855.7</ele>
        <time>2021-09-30T12:04:36Z</time>
      </trkpt>
      <trkpt lat="44.29219" lon="5.59912">
        <ele>856.1</ele>
        <time>2021-09-30T12:04:38Z</time>
      </trkpt>
      <trkpt lat="44.29223" lon="5.59898">
        <ele>856.1</ele>
        <time>2021-09-30T12:04:50Z</time>
      </trkpt>
      <trkpt lat="44.29232" lon="5.59882">
        <ele>857.2</ele>
        <time>2021-09-30T12:05:07Z</time>
      </trkpt>
      <trkpt lat="44.29229" lon="5.59871">
        <ele>855.2</ele>
        <time>2021-09-30T12:05:24Z</time>
      </trkpt>
      <trkpt lat="44.29224" lon="5.59887">
        <ele>855.3</ele>
        <time>2021-09-30T12:05:40Z</time>
      </trkpt>
      <trkpt lat="44.29215" lon="5.59907">
        <ele>854.3</ele>
        <time>2021-09-30T12:05:59Z</time>
      </trkpt>
      <trkpt lat="44.29213" lon="5.59924">
        <ele>854.5</ele>
        <time>2021-09-30T12:06:18Z</time>
      </trkpt>
      <trkpt lat="44.29212" lon="5.59925">
        <ele>854.2</ele>
        <time>2021-09-30T12:06:19Z</time>
      </trkpt>
      <trkpt lat="44.29217" lon="5.59955">
        <ele>855.9</ele>
        <time>2021-09-30T12:06:40Z</time>
      </trkpt>
      <trkpt lat="44.29221" lon="5.59978">
        <ele>857.4</ele>
        <time>2021-09-30T12:07:00Z</time>
      </trkpt>
      <trkpt lat="44.29211" lon="5.5997">
        <ele>853.7</ele>
        <time>2021-09-30T12:07:15Z</time>
      </trkpt>
      <trkpt lat="44.29197" lon="5.59945">
        <ele>848.8</ele>
        <time>2021-09-30T12:07:37Z</time>
      </trkpt>
      <trkpt lat="44.29187" lon="5.59922">
        <ele>845.7</ele>
        <time>2021-09-30T12:07:59Z</time>
      </trkpt>
      <trkpt lat="44.29181" lon="5.599">
        <ele>842.6</ele>
        <time>2021-09-30T12:08:16Z</time>
      </trkpt>
      <trkpt lat="44.29174" lon="5.59878">
        <ele>838.9</ele>
        <time>2021-09-30T12:08:33Z</time>
      </trkpt>
      <trkpt lat="44.29176" lon="5.59857">
        <ele>838.2</ele>
        <time>2021-09-30T12:08:51Z</time>
      </trkpt>
      <trkpt lat="44.29184" lon="5.59844">
        <ele>839.6</ele>
        <time>2021-09-30T12:09:10Z</time>
      </trkpt>
      <trkpt lat="44.29184" lon="5.59838">
        <ele>839.1</ele>
        <time>2021-09-30T12:09:15Z</time>
      </trkpt>
      <trkpt lat="44.29192" lon="5.59823">
        <ele>839.7</ele>
        <time>2021-09-30T12:09:32Z</time>
      </trkpt>
      <trkpt lat="44.29203" lon="5.59804">
        <ele>839.8</ele>
        <time>2021-09-30T12:09:52Z</time>
      </trkpt>
      <trkpt lat="44.29209" lon="5.59785">
        <ele>838.4</ele>
        <time>2021-09-30T12:10:10Z</time>
      </trkpt>
      <trkpt lat="44.2921" lon="5.59768">
        <ele>836</ele>
        <time>2021-09-30T12:10:26Z</time>
      </trkpt>
      <trkpt lat="44.29215" lon="5.59754">
        <ele>834.8</ele>
        <time>2021-09-30T12:10:45Z</time>
      </trkpt>
      <trkpt lat="44.29221" lon="5.5973">
        <ele>833.4</ele>
        <time>2021-09-30T12:11:07Z</time>
      </trkpt>
      <trkpt lat="44.29224" lon="5.59723">
        <ele>833.2</ele>
        <time>2021-09-30T12:11:13Z</time>
      </trkpt>
      <trkpt lat="44.29233" lon="5.59706">
        <ele>832.7</ele>
        <time>2021-09-30T12:11:26Z</time>
      </trkpt>
      <trkpt lat="44.29244" lon="5.59681">
        <ele>831.2</ele>
        <time>2021-09-30T12:11:49Z</time>
      </trkpt>
      <trkpt lat="44.29245" lon="5.5968">
        <ele>831.2</ele>
        <time>2021-09-30T12:11:50Z</time>
      </trkpt>
      <trkpt lat="44.29264" lon="5.59652">
        <ele>833.4</ele>
        <time>2021-09-30T12:12:12Z</time>
      </trkpt>
      <trkpt lat="44.29267" lon="5.5965">
        <ele>834</ele>
        <time>2021-09-30T12:12:16Z</time>
      </trkpt>
      <trkpt lat="44.29274" lon="5.59632">
        <ele>834.8</ele>
        <time>2021-09-30T12:12:32Z</time>
      </trkpt>
      <trkpt lat="44.29282" lon="5.59622">
        <ele>835.7</ele>
        <time>2021-09-30T12:12:55Z</time>
      </trkpt>
      <trkpt lat="44.29282" lon="5.59619">
        <ele>835.5</ele>
        <time>2021-09-30T12:13:33Z</time>
      </trkpt>
      <trkpt lat="44.29274" lon="5.59603">
        <ele>833.6</ele>
        <time>2021-09-30T12:13:52Z</time>
      </trkpt>
      <trkpt lat="44.29278" lon="5.59592">
        <ele>833.5</ele>
        <time>2021-09-30T12:14:11Z</time>
      </trkpt>
      <trkpt lat="44.29284" lon="5.59578">
        <ele>833.9</ele>
        <time>2021-09-30T12:14:42Z</time>
      </trkpt>
      <trkpt lat="44.29288" lon="5.59575">
        <ele>834.4</ele>
        <time>2021-09-30T12:14:48Z</time>
      </trkpt>
      <trkpt lat="44.29291" lon="5.59586">
        <ele>834.2</ele>
        <time>2021-09-30T12:15:11Z</time>
      </trkpt>
      <trkpt lat="44.29283" lon="5.59581">
        <ele>833.6</ele>
        <time>2021-09-30T12:15:36Z</time>
      </trkpt>
      <trkpt lat="44.29272" lon="5.59586">
        <ele>832.7</ele>
        <time>2021-09-30T12:15:56Z</time>
      </trkpt>
      <trkpt lat="44.2927" lon="5.59586">
        <ele>832.5</ele>
        <time>2021-09-30T12:16:46Z</time>
      </trkpt>
      <trkpt lat="44.29276" lon="5.59581">
        <ele>833.1</ele>
        <time>2021-09-30T12:17:31Z</time>
      </trkpt>
      <trkpt lat="44.29284" lon="5.59591">
        <ele>834</ele>
        <time>2021-09-30T12:18:13Z</time>
      </trkpt>
      <trkpt lat="44.2928" lon="5.59585">
        <ele>833.3</ele>
        <time>2021-09-30T12:18:40Z</time>
      </trkpt>
      <trkpt lat="44.29277" lon="5.59582">
        <ele>833.1</ele>
        <time>2021-09-30T12:19:24Z</time>
      </trkpt>
      <trkpt lat="44.29274" lon="5.59582">
        <ele>832.9</ele>
        <time>2021-09-30T12:20:03Z</time>
      </trkpt>
      <trkpt lat="44.29273" lon="5.5958">
        <ele>833</ele>
        <time>2021-09-30T12:20:38Z</time>
      </trkpt>
      <trkpt lat="44.29272" lon="5.59583">
        <ele>832.6</ele>
        <time>2021-09-30T12:21:01Z</time>
      </trkpt>
      <trkpt lat="44.29267" lon="5.59587">
        <ele>832.3</ele>
        <time>2021-09-30T12:21:27Z</time>
      </trkpt>
      <trkpt lat="44.29258" lon="5.59586">
        <ele>831.6</ele>
        <time>2021-09-30T12:21:38Z</time>
      </trkpt>
      <trkpt lat="44.29247" lon="5.59569">
        <ele>832.6</ele>
        <time>2021-09-30T12:21:57Z</time>
      </trkpt>
      <trkpt lat="44.29233" lon="5.59542">
        <ele>834.4</ele>
        <time>2021-09-30T12:22:26Z</time>
      </trkpt>
      <trkpt lat="44.29222" lon="5.59522">
        <ele>835.1</ele>
        <time>2021-09-30T12:22:48Z</time>
      </trkpt>
      <trkpt lat="44.29222" lon="5.59504">
        <ele>836.9</ele>
        <time>2021-09-30T12:23:11Z</time>
      </trkpt>
      <trkpt lat="44.29226" lon="5.59495">
        <ele>838.5</ele>
        <time>2021-09-30T12:23:33Z</time>
      </trkpt>
      <trkpt lat="44.29236" lon="5.59488">
        <ele>841</ele>
        <time>2021-09-30T12:23:58Z</time>
      </trkpt>
      <trkpt lat="44.29241" lon="5.59474">
        <ele>843.6</ele>
        <time>2021-09-30T12:24:15Z</time>
      </trkpt>
      <trkpt lat="44.29244" lon="5.59447">
        <ele>847.6</ele>
        <time>2021-09-30T12:24:42Z</time>
      </trkpt>
      <trkpt lat="44.29244" lon="5.59418">
        <ele>851.2</ele>
        <time>2021-09-30T12:25:14Z</time>
      </trkpt>
      <trkpt lat="44.29247" lon="5.59397">
        <ele>854</ele>
        <time>2021-09-30T12:25:39Z</time>
      </trkpt>
      <trkpt lat="44.29249" lon="5.59374">
        <ele>856.8</ele>
        <time>2021-09-30T12:26:09Z</time>
      </trkpt>
      <trkpt lat="44.29256" lon="5.5936">
        <ele>858.6</ele>
        <time>2021-09-30T12:26:29Z</time>
      </trkpt>
      <trkpt lat="44.29267" lon="5.59365">
        <ele>858.2</ele>
        <time>2021-09-30T12:26:49Z</time>
      </trkpt>
      <trkpt lat="44.29275" lon="5.59375">
        <ele>857</ele>
        <time>2021-09-30T12:27:06Z</time>
      </trkpt>
      <trkpt lat="44.29284" lon="5.59381">
        <ele>856.1</ele>
        <time>2021-09-30T12:27:25Z</time>
      </trkpt>
      <trkpt lat="44.29293" lon="5.59379">
        <ele>856.4</ele>
        <time>2021-09-30T12:27:45Z</time>
      </trkpt>
      <trkpt lat="44.29301" lon="5.59378">
        <ele>856.5</ele>
        <time>2021-09-30T12:27:59Z</time>
      </trkpt>
      <trkpt lat="44.29304" lon="5.59376">
        <ele>856.8</ele>
        <time>2021-09-30T12:28:15Z</time>
      </trkpt>
      <trkpt lat="44.29308" lon="5.59369">
        <ele>858.1</ele>
        <time>2021-09-30T12:28:50Z</time>
      </trkpt>
      <trkpt lat="44.29312" lon="5.5935">
        <ele>861.6</ele>
        <time>2021-09-30T12:29:10Z</time>
      </trkpt>
      <trkpt lat="44.29315" lon="5.59327">
        <ele>866.4</ele>
        <time>2021-09-30T12:29:33Z</time>
      </trkpt>
      <trkpt lat="44.29318" lon="5.59305">
        <ele>872.1</ele>
        <time>2021-09-30T12:29:54Z</time>
      </trkpt>
      <trkpt lat="44.29324" lon="5.59281">
        <ele>879</ele>
        <time>2021-09-30T12:30:21Z</time>
      </trkpt>
      <trkpt lat="44.29335" lon="5.59257">
        <ele>886.7</ele>
        <time>2021-09-30T12:30:48Z</time>
      </trkpt>
      <trkpt lat="44.29347" lon="5.5924">
        <ele>887.8</ele>
        <time>2021-09-30T12:31:13Z</time>
      </trkpt>
      <trkpt lat="44.29355" lon="5.59214">
        <ele>891.3</ele>
        <time>2021-09-30T12:31:37Z</time>
      </trkpt>
      <trkpt lat="44.29362" lon="5.59201">
        <ele>893.1</ele>
        <time>2021-09-30T12:32:00Z</time>
      </trkpt>
      <trkpt lat="44.29368" lon="5.59186">
        <ele>895.8</ele>
        <time>2021-09-30T12:32:20Z</time>
      </trkpt>
      <trkpt lat="44.2937" lon="5.59179">
        <ele>897.3</ele>
        <time>2021-09-30T12:32:30Z</time>
      </trkpt>
      <trkpt lat="44.29372" lon="5.59165">
        <ele>900</ele>
        <time>2021-09-30T12:32:53Z</time>
      </trkpt>
      <trkpt lat="44.29376" lon="5.59148">
        <ele>899.8</ele>
        <time>2021-09-30T12:33:36Z</time>
      </trkpt>
      <trkpt lat="44.29381" lon="5.59132">
        <ele>900</ele>
        <time>2021-09-30T12:33:57Z</time>
      </trkpt>
      <trkpt lat="44.29387" lon="5.59118">
        <ele>900.8</ele>
        <time>2021-09-30T12:34:18Z</time>
      </trkpt>
      <trkpt lat="44.29394" lon="5.59108">
        <ele>902.1</ele>
        <time>2021-09-30T12:34:38Z</time>
      </trkpt>
      <trkpt lat="44.29405" lon="5.59096">
        <ele>904.5</ele>
        <time>2021-09-30T12:35:00Z</time>
      </trkpt>
      <trkpt lat="44.29414" lon="5.59093">
        <ele>906.5</ele>
        <time>2021-09-30T12:35:17Z</time>
      </trkpt>
      <trkpt lat="44.29419" lon="5.5909">
        <ele>906.9</ele>
        <time>2021-09-30T12:35:33Z</time>
      </trkpt>
      <trkpt lat="44.29425" lon="5.59084">
        <ele>906.7</ele>
        <time>2021-09-30T12:35:53Z</time>
      </trkpt>
      <trkpt lat="44.29428" lon="5.5908">
        <ele>906.4</ele>
        <time>2021-09-30T12:36:16Z</time>
      </trkpt>
      <trkpt lat="44.29429" lon="5.59083">
        <ele>906.2</ele>
        <time>2021-09-30T12:36:58Z</time>
      </trkpt>
      <trkpt lat="44.29427" lon="5.59082">
        <ele>906.5</ele>
        <time>2021-09-30T12:37:44Z</time>
      </trkpt>
      <trkpt lat="44.29425" lon="5.59082">
        <ele>906.8</ele>
        <time>2021-09-30T12:38:45Z</time>
      </trkpt>
      <trkpt lat="44.29429" lon="5.59079">
        <ele>906.2</ele>
        <time>2021-09-30T12:39:31Z</time>
      </trkpt>
      <trkpt lat="44.29429" lon="5.5908">
        <ele>906.2</ele>
        <time>2021-09-30T12:40:16Z</time>
      </trkpt>
      <trkpt lat="44.29431" lon="5.59077">
        <ele>906</ele>
        <time>2021-09-30T12:40:45Z</time>
      </trkpt>
      <trkpt lat="44.29432" lon="5.59076">
        <ele>905.9</ele>
        <time>2021-09-30T12:41:09Z</time>
      </trkpt>
      <trkpt lat="44.29433" lon="5.59074">
        <ele>905.8</ele>
        <time>2021-09-30T12:41:36Z</time>
      </trkpt>
      <trkpt lat="44.29433" lon="5.59072">
        <ele>905.8</ele>
        <time>2021-09-30T12:42:03Z</time>
      </trkpt>
      <trkpt lat="44.29436" lon="5.59072">
        <ele>905.4</ele>
        <time>2021-09-30T12:42:35Z</time>
      </trkpt>
      <trkpt lat="44.29438" lon="5.59059">
        <ele>905.4</ele>
        <time>2021-09-30T12:42:58Z</time>
      </trkpt>
      <trkpt lat="44.29439" lon="5.59054">
        <ele>905.4</ele>
        <time>2021-09-30T12:43:02Z</time>
      </trkpt>
      <trkpt lat="44.29441" lon="5.59029">
        <ele>905.7</ele>
        <time>2021-09-30T12:43:25Z</time>
      </trkpt>
      <trkpt lat="44.29444" lon="5.59009">
        <ele>906.1</ele>
        <time>2021-09-30T12:43:46Z</time>
      </trkpt>
      <trkpt lat="44.29443" lon="5.58999">
        <ele>906.5</ele>
        <time>2021-09-30T12:44:01Z</time>
      </trkpt>
      <trkpt lat="44.29441" lon="5.58987">
        <ele>908.7</ele>
        <time>2021-09-30T12:44:19Z</time>
      </trkpt>
      <trkpt lat="44.29441" lon="5.58973">
        <ele>911.1</ele>
        <time>2021-09-30T12:44:39Z</time>
      </trkpt>
      <trkpt lat="44.2944" lon="5.58959">
        <ele>913.6</ele>
        <time>2021-09-30T12:44:57Z</time>
      </trkpt>
      <trkpt lat="44.29439" lon="5.58942">
        <ele>916.8</ele>
        <time>2021-09-30T12:45:19Z</time>
      </trkpt>
      <trkpt lat="44.29438" lon="5.58934">
        <ele>918.3</ele>
        <time>2021-09-30T12:45:44Z</time>
      </trkpt>
      <trkpt lat="44.29437" lon="5.58929">
        <ele>919.4</ele>
        <time>2021-09-30T12:46:15Z</time>
      </trkpt>
      <trkpt lat="44.29438" lon="5.58918">
        <ele>921.2</ele>
        <time>2021-09-30T12:46:34Z</time>
      </trkpt>
      <trkpt lat="44.29434" lon="5.58902">
        <ele>925.3</ele>
        <time>2021-09-30T12:46:55Z</time>
      </trkpt>
      <trkpt lat="44.2943" lon="5.58884">
        <ele>930.2</ele>
        <time>2021-09-30T12:47:15Z</time>
      </trkpt>
      <trkpt lat="44.29427" lon="5.58871">
        <ele>933.9</ele>
        <time>2021-09-30T12:47:33Z</time>
      </trkpt>
      <trkpt lat="44.29425" lon="5.58857">
        <ele>937.7</ele>
        <time>2021-09-30T12:47:53Z</time>
      </trkpt>
      <trkpt lat="44.2942" lon="5.58847">
        <ele>941.6</ele>
        <time>2021-09-30T12:48:09Z</time>
      </trkpt>
      <trkpt lat="44.29411" lon="5.58838">
        <ele>942.8</ele>
        <time>2021-09-30T12:48:28Z</time>
      </trkpt>
      <trkpt lat="44.29411" lon="5.58834">
        <ele>943.9</ele>
        <time>2021-09-30T12:48:32Z</time>
      </trkpt>
      <trkpt lat="44.29407" lon="5.58831">
        <ele>943.1</ele>
        <time>2021-09-30T12:49:23Z</time>
      </trkpt>
      <trkpt lat="44.29407" lon="5.58842">
        <ele>940.4</ele>
        <time>2021-09-30T12:49:47Z</time>
      </trkpt>
      <trkpt lat="44.29412" lon="5.58843">
        <ele>941.9</ele>
        <time>2021-09-30T12:50:16Z</time>
      </trkpt>
      <trkpt lat="44.29416" lon="5.58847">
        <ele>942.3</ele>
        <time>2021-09-30T12:50:34Z</time>
      </trkpt>
      <trkpt lat="44.29408" lon="5.58836">
        <ele>942.3</ele>
        <time>2021-09-30T12:50:52Z</time>
      </trkpt>
      <trkpt lat="44.29403" lon="5.58829">
        <ele>942.1</ele>
        <time>2021-09-30T12:51:33Z</time>
      </trkpt>
      <trkpt lat="44.29398" lon="5.58816">
        <ele>943</ele>
        <time>2021-09-30T12:51:48Z</time>
      </trkpt>
      <trkpt lat="44.29389" lon="5.58797">
        <ele>944.4</ele>
        <time>2021-09-30T12:52:08Z</time>
      </trkpt>
      <trkpt lat="44.29374" lon="5.58778">
        <ele>944.9</ele>
        <time>2021-09-30T12:52:31Z</time>
      </trkpt>
      <trkpt lat="44.29359" lon="5.5876">
        <ele>946.2</ele>
        <time>2021-09-30T12:52:53Z</time>
      </trkpt>
      <trkpt lat="44.29344" lon="5.58738">
        <ele>948.8</ele>
        <time>2021-09-30T12:53:16Z</time>
      </trkpt>
      <trkpt lat="44.29331" lon="5.58714">
        <ele>951.9</ele>
        <time>2021-09-30T12:53:37Z</time>
      </trkpt>
      <trkpt lat="44.29318" lon="5.58689">
        <ele>951.5</ele>
        <time>2021-09-30T12:53:59Z</time>
      </trkpt>
      <trkpt lat="44.29307" lon="5.58656">
        <ele>952.2</ele>
        <time>2021-09-30T12:54:22Z</time>
      </trkpt>
      <trkpt lat="44.29303" lon="5.58628">
        <ele>952.7</ele>
        <time>2021-09-30T12:54:41Z</time>
      </trkpt>
      <trkpt lat="44.29298" lon="5.58598">
        <ele>952.6</ele>
        <time>2021-09-30T12:55:02Z</time>
      </trkpt>
      <trkpt lat="44.29297" lon="5.58562">
        <ele>954.8</ele>
        <time>2021-09-30T12:55:26Z</time>
      </trkpt>
      <trkpt lat="44.29298" lon="5.58525">
        <ele>958</ele>
        <time>2021-09-30T12:55:47Z</time>
      </trkpt>
      <trkpt lat="44.293" lon="5.58495">
        <ele>961.4</ele>
        <time>2021-09-30T12:56:07Z</time>
      </trkpt>
      <trkpt lat="44.29299" lon="5.58471">
        <ele>962.7</ele>
        <time>2021-09-30T12:56:24Z</time>
      </trkpt>
      <trkpt lat="44.2929" lon="5.58437">
        <ele>960.8</ele>
        <time>2021-09-30T12:56:47Z</time>
      </trkpt>
      <trkpt lat="44.29286" lon="5.58409">
        <ele>960.9</ele>
        <time>2021-09-30T12:57:07Z</time>
      </trkpt>
      <trkpt lat="44.29285" lon="5.58403">
        <ele>960.5</ele>
        <time>2021-09-30T12:57:11Z</time>
      </trkpt>
      <trkpt lat="44.29289" lon="5.58361">
        <ele>963.1</ele>
        <time>2021-09-30T12:57:36Z</time>
      </trkpt>
      <trkpt lat="44.29294" lon="5.58333">
        <ele>965.3</ele>
        <time>2021-09-30T12:57:55Z</time>
      </trkpt>
      <trkpt lat="44.29294" lon="5.5833">
        <ele>965.4</ele>
        <time>2021-09-30T12:57:57Z</time>
      </trkpt>
      <trkpt lat="44.29297" lon="5.58303">
        <ele>967.2</ele>
        <time>2021-09-30T12:58:15Z</time>
      </trkpt>
      <trkpt lat="44.29301" lon="5.58273">
        <ele>968.9</ele>
        <time>2021-09-30T12:58:34Z</time>
      </trkpt>
      <trkpt lat="44.29301" lon="5.58245">
        <ele>969.7</ele>
        <time>2021-09-30T12:58:54Z</time>
      </trkpt>
      <trkpt lat="44.29294" lon="5.58217">
        <ele>971</ele>
        <time>2021-09-30T12:59:16Z</time>
      </trkpt>
      <trkpt lat="44.29285" lon="5.58191">
        <ele>972.8</ele>
        <time>2021-09-30T12:59:37Z</time>
      </trkpt>
      <trkpt lat="44.29275" lon="5.58162">
        <ele>976</ele>
        <time>2021-09-30T12:59:58Z</time>
      </trkpt>
      <trkpt lat="44.29258" lon="5.58127">
        <ele>982</ele>
        <time>2021-09-30T13:00:25Z</time>
      </trkpt>
      <trkpt lat="44.29247" lon="5.58103">
        <ele>986.2</ele>
        <time>2021-09-30T13:00:44Z</time>
      </trkpt>
      <trkpt lat="44.29238" lon="5.5808">
        <ele>988.3</ele>
        <time>2021-09-30T13:01:03Z</time>
      </trkpt>
      <trkpt lat="44.29233" lon="5.5806">
        <ele>989.1</ele>
        <time>2021-09-30T13:01:20Z</time>
      </trkpt>
      <trkpt lat="44.29225" lon="5.58034">
        <ele>990.2</ele>
        <time>2021-09-30T13:01:39Z</time>
      </trkpt>
      <trkpt lat="44.29221" lon="5.58013">
        <ele>991.7</ele>
        <time>2021-09-30T13:01:55Z</time>
      </trkpt>
      <trkpt lat="44.29218" lon="5.57984">
        <ele>993</ele>
        <time>2021-09-30T13:02:17Z</time>
      </trkpt>
      <trkpt lat="44.29215" lon="5.57967">
        <ele>993.4</ele>
        <time>2021-09-30T13:02:32Z</time>
      </trkpt>
      <trkpt lat="44.29212" lon="5.57942">
        <ele>994.3</ele>
        <time>2021-09-30T13:02:51Z</time>
      </trkpt>
      <trkpt lat="44.29203" lon="5.5791">
        <ele>995.8</ele>
        <time>2021-09-30T13:03:13Z</time>
      </trkpt>
      <trkpt lat="44.29187" lon="5.57889">
        <ele>997.7</ele>
        <time>2021-09-30T13:03:33Z</time>
      </trkpt>
      <trkpt lat="44.29168" lon="5.57877">
        <ele>1000.6</ele>
        <time>2021-09-30T13:03:52Z</time>
      </trkpt>
      <trkpt lat="44.29154" lon="5.57865">
        <ele>1000.3</ele>
        <time>2021-09-30T13:04:08Z</time>
      </trkpt>
      <trkpt lat="44.29136" lon="5.57848">
        <ele>1001</ele>
        <time>2021-09-30T13:04:27Z</time>
      </trkpt>
      <trkpt lat="44.29129" lon="5.57843">
        <ele>1001.3</ele>
        <time>2021-09-30T13:04:36Z</time>
      </trkpt>
      <trkpt lat="44.29113" lon="5.57832">
        <ele>1002.6</ele>
        <time>2021-09-30T13:04:56Z</time>
      </trkpt>
      <trkpt lat="44.29112" lon="5.57831">
        <ele>1002.8</ele>
        <time>2021-09-30T13:05:28Z</time>
      </trkpt>
      <trkpt lat="44.29113" lon="5.57827">
        <ele>1003.4</ele>
        <time>2021-09-30T13:06:03Z</time>
      </trkpt>
      <trkpt lat="44.29114" lon="5.57818">
        <ele>1004.9</ele>
        <time>2021-09-30T13:06:26Z</time>
      </trkpt>
      <trkpt lat="44.29109" lon="5.5781">
        <ele>1006.1</ele>
        <time>2021-09-30T13:06:41Z</time>
      </trkpt>
      <trkpt lat="44.29105" lon="5.57804">
        <ele>1007.1</ele>
        <time>2021-09-30T13:07:11Z</time>
      </trkpt>
      <trkpt lat="44.29097" lon="5.578">
        <ele>1007.8</ele>
        <time>2021-09-30T13:07:47Z</time>
      </trkpt>
      <trkpt lat="44.29096" lon="5.57796">
        <ele>1008.5</ele>
        <time>2021-09-30T13:08:28Z</time>
      </trkpt>
      <trkpt lat="44.291" lon="5.57798">
        <ele>1008.2</ele>
        <time>2021-09-30T13:09:09Z</time>
      </trkpt>
      <trkpt lat="44.29089" lon="5.57788">
        <ele>1010.2</ele>
        <time>2021-09-30T13:09:41Z</time>
      </trkpt>
      <trkpt lat="44.29085" lon="5.57778">
        <ele>1012.2</ele>
        <time>2021-09-30T13:09:57Z</time>
      </trkpt>
      <trkpt lat="44.29085" lon="5.57768">
        <ele>1014.3</ele>
        <time>2021-09-30T13:10:15Z</time>
      </trkpt>
      <trkpt lat="44.29093" lon="5.57758">
        <ele>1015.8</ele>
        <time>2021-09-30T13:10:36Z</time>
      </trkpt>
      <trkpt lat="44.29093" lon="5.57749">
        <ele>1017.5</ele>
        <time>2021-09-30T13:11:19Z</time>
      </trkpt>
      <trkpt lat="44.29099" lon="5.57734">
        <ele>1019.2</ele>
        <time>2021-09-30T13:11:45Z</time>
      </trkpt>
      <trkpt lat="44.291" lon="5.57722">
        <ele>1020.9</ele>
        <time>2021-09-30T13:12:05Z</time>
      </trkpt>
      <trkpt lat="44.29101" lon="5.57708">
        <ele>1022.9</ele>
        <time>2021-09-30T13:12:26Z</time>
      </trkpt>
      <trkpt lat="44.29099" lon="5.57692">
        <ele>1025.4</ele>
        <time>2021-09-30T13:12:52Z</time>
      </trkpt>
      <trkpt lat="44.29099" lon="5.5768">
        <ele>1027.2</ele>
        <time>2021-09-30T13:13:13Z</time>
      </trkpt>
      <trkpt lat="44.291" lon="5.57664">
        <ele>1029.3</ele>
        <time>2021-09-30T13:13:36Z</time>
      </trkpt>
      <trkpt lat="44.29103" lon="5.57648">
        <ele>1031.1</ele>
        <time>2021-09-30T13:13:56Z</time>
      </trkpt>
      <trkpt lat="44.29105" lon="5.5763">
        <ele>1033.3</ele>
        <time>2021-09-30T13:14:21Z</time>
      </trkpt>
      <trkpt lat="44.29108" lon="5.57613">
        <ele>1035.4</ele>
        <time>2021-09-30T13:14:44Z</time>
      </trkpt>
      <trkpt lat="44.29109" lon="5.57597">
        <ele>1037.5</ele>
        <time>2021-09-30T13:15:08Z</time>
      </trkpt>
      <trkpt lat="44.29112" lon="5.57578">
        <ele>1039.8</ele>
        <time>2021-09-30T13:15:33Z</time>
      </trkpt>
      <trkpt lat="44.29112" lon="5.57571">
        <ele>1040.5</ele>
        <time>2021-09-30T13:16:31Z</time>
      </trkpt>
      <trkpt lat="44.29116" lon="5.57572">
        <ele>1040.4</ele>
        <time>2021-09-30T13:17:18Z</time>
      </trkpt>
      <trkpt lat="44.29114" lon="5.5757">
        <ele>1040.6</ele>
        <time>2021-09-30T13:18:37Z</time>
      </trkpt>
      <trkpt lat="44.29114" lon="5.57571">
        <ele>1040.5</ele>
        <time>2021-09-30T13:19:23Z</time>
      </trkpt>
      <trkpt lat="44.29113" lon="5.57571">
        <ele>1040.5</ele>
        <time>2021-09-30T13:20:21Z</time>
      </trkpt>
      <trkpt lat="44.29112" lon="5.57569">
        <ele>1040.7</ele>
        <time>2021-09-30T13:21:07Z</time>
      </trkpt>
      <trkpt lat="44.29113" lon="5.57567">
        <ele>1040.9</ele>
        <time>2021-09-30T13:22:17Z</time>
      </trkpt>
      <trkpt lat="44.29114" lon="5.57545">
        <ele>1043</ele>
        <time>2021-09-30T13:22:44Z</time>
      </trkpt>
      <trkpt lat="44.29116" lon="5.57518">
        <ele>1045.8</ele>
        <time>2021-09-30T13:23:10Z</time>
      </trkpt>
      <trkpt lat="44.29119" lon="5.5749">
        <ele>1047.8</ele>
        <time>2021-09-30T13:23:33Z</time>
      </trkpt>
      <trkpt lat="44.29117" lon="5.57461">
        <ele>1048.3</ele>
        <time>2021-09-30T13:23:55Z</time>
      </trkpt>
      <trkpt lat="44.29116" lon="5.57436">
        <ele>1048.7</ele>
        <time>2021-09-30T13:24:15Z</time>
      </trkpt>
      <trkpt lat="44.29108" lon="5.5741">
        <ele>1049.9</ele>
        <time>2021-09-30T13:24:34Z</time>
      </trkpt>
      <trkpt lat="44.29102" lon="5.57401">
        <ele>1050.8</ele>
        <time>2021-09-30T13:24:44Z</time>
      </trkpt>
      <trkpt lat="44.29097" lon="5.57383">
        <ele>1052.2</ele>
        <time>2021-09-30T13:24:57Z</time>
      </trkpt>
      <trkpt lat="44.29095" lon="5.57363">
        <ele>1053.6</ele>
        <time>2021-09-30T13:25:15Z</time>
      </trkpt>
      <trkpt lat="44.29099" lon="5.57347">
        <ele>1054.1</ele>
        <time>2021-09-30T13:25:36Z</time>
      </trkpt>
      <trkpt lat="44.29103" lon="5.57334">
        <ele>1054.4</ele>
        <time>2021-09-30T13:25:55Z</time>
      </trkpt>
      <trkpt lat="44.29107" lon="5.57324">
        <ele>1056.1</ele>
        <time>2021-09-30T13:26:18Z</time>
      </trkpt>
      <trkpt lat="44.29105" lon="5.57317">
        <ele>1058</ele>
        <time>2021-09-30T13:26:36Z</time>
      </trkpt>
      <trkpt lat="44.29105" lon="5.57311">
        <ele>1059.5</ele>
        <time>2021-09-30T13:27:00Z</time>
      </trkpt>
      <trkpt lat="44.291" lon="5.573">
        <ele>1063</ele>
        <time>2021-09-30T13:27:22Z</time>
      </trkpt>
      <trkpt lat="44.29099" lon="5.57291">
        <ele>1065.3</ele>
        <time>2021-09-30T13:27:52Z</time>
      </trkpt>
      <trkpt lat="44.29093" lon="5.57281">
        <ele>1069</ele>
        <time>2021-09-30T13:28:18Z</time>
      </trkpt>
      <trkpt lat="44.29091" lon="5.57268">
        <ele>1072.7</ele>
        <time>2021-09-30T13:28:44Z</time>
      </trkpt>
      <trkpt lat="44.2909" lon="5.57256">
        <ele>1075.9</ele>
        <time>2021-09-30T13:29:05Z</time>
      </trkpt>
      <trkpt lat="44.29088" lon="5.57244">
        <ele>1079.1</ele>
        <time>2021-09-30T13:29:25Z</time>
      </trkpt>
      <trkpt lat="44.29086" lon="5.57231">
        <ele>1082.2</ele>
        <time>2021-09-30T13:29:52Z</time>
      </trkpt>
      <trkpt lat="44.29085" lon="5.57219">
        <ele>1084.9</ele>
        <time>2021-09-30T13:30:20Z</time>
      </trkpt>
      <trkpt lat="44.29087" lon="5.57206">
        <ele>1087</ele>
        <time>2021-09-30T13:30:41Z</time>
      </trkpt>
      <trkpt lat="44.29084" lon="5.5719">
        <ele>1091.1</ele>
        <time>2021-09-30T13:31:06Z</time>
      </trkpt>
      <trkpt lat="44.29083" lon="5.5718">
        <ele>1093.2</ele>
        <time>2021-09-30T13:31:27Z</time>
      </trkpt>
      <trkpt lat="44.29081" lon="5.57155">
        <ele>1096.8</ele>
        <time>2021-09-30T13:31:55Z</time>
      </trkpt>
      <trkpt lat="44.29074" lon="5.57141">
        <ele>1096.6</ele>
        <time>2021-09-30T13:32:18Z</time>
      </trkpt>
      <trkpt lat="44.29069" lon="5.57116">
        <ele>1098.7</ele>
        <time>2021-09-30T13:32:50Z</time>
      </trkpt>
      <trkpt lat="44.29067" lon="5.57105">
        <ele>1099.8</ele>
        <time>2021-09-30T13:33:14Z</time>
      </trkpt>
      <trkpt lat="44.2907" lon="5.571">
        <ele>1101.3</ele>
        <time>2021-09-30T13:33:46Z</time>
      </trkpt>
      <trkpt lat="44.2907" lon="5.57094">
        <ele>1102.1</ele>
        <time>2021-09-30T13:34:10Z</time>
      </trkpt>
      <trkpt lat="44.29068" lon="5.57087">
        <ele>1102.6</ele>
        <time>2021-09-30T13:34:43Z</time>
      </trkpt>
      <trkpt lat="44.29071" lon="5.57083">
        <ele>1103.9</ele>
        <time>2021-09-30T13:35:24Z</time>
      </trkpt>
      <trkpt lat="44.29065" lon="5.57082">
        <ele>1102.4</ele>
        <time>2021-09-30T13:36:46Z</time>
      </trkpt>
      <trkpt lat="44.29066" lon="5.57077">
        <ele>1102.9</ele>
        <time>2021-09-30T13:37:35Z</time>
      </trkpt>
      <trkpt lat="44.29068" lon="5.57077">
        <ele>1103.4</ele>
        <time>2021-09-30T13:38:56Z</time>
      </trkpt>
      <trkpt lat="44.29068" lon="5.57078">
        <ele>1103.3</ele>
        <time>2021-09-30T13:40:23Z</time>
      </trkpt>
      <trkpt lat="44.29069" lon="5.57079">
        <ele>1103.5</ele>
        <time>2021-09-30T13:41:23Z</time>
      </trkpt>
      <trkpt lat="44.29067" lon="5.57067">
        <ele>1103.5</ele>
        <time>2021-09-30T13:41:49Z</time>
      </trkpt>
      <trkpt lat="44.29066" lon="5.57041">
        <ele>1104.3</ele>
        <time>2021-09-30T13:42:12Z</time>
      </trkpt>
      <trkpt lat="44.29065" lon="5.57017">
        <ele>1105.1</ele>
        <time>2021-09-30T13:42:33Z</time>
      </trkpt>
      <trkpt lat="44.29055" lon="5.56991">
        <ele>1104.3</ele>
        <time>2021-09-30T13:42:54Z</time>
      </trkpt>
      <trkpt lat="44.29048" lon="5.5697">
        <ele>1103.2</ele>
        <time>2021-09-30T13:43:13Z</time>
      </trkpt>
      <trkpt lat="44.29045" lon="5.56947">
        <ele>1102.9</ele>
        <time>2021-09-30T13:43:35Z</time>
      </trkpt>
      <trkpt lat="44.29038" lon="5.56918">
        <ele>1103.4</ele>
        <time>2021-09-30T13:43:57Z</time>
      </trkpt>
      <trkpt lat="44.29028" lon="5.56893">
        <ele>1106</ele>
        <time>2021-09-30T13:44:19Z</time>
      </trkpt>
      <trkpt lat="44.2902" lon="5.56872">
        <ele>1109.2</ele>
        <time>2021-09-30T13:44:38Z</time>
      </trkpt>
      <trkpt lat="44.29015" lon="5.56857">
        <ele>1111.8</ele>
        <time>2021-09-30T13:44:48Z</time>
      </trkpt>
      <trkpt lat="44.29007" lon="5.56834">
        <ele>1116.6</ele>
        <time>2021-09-30T13:45:09Z</time>
      </trkpt>
      <trkpt lat="44.29004" lon="5.56813">
        <ele>1118</ele>
        <time>2021-09-30T13:45:27Z</time>
      </trkpt>
      <trkpt lat="44.29004" lon="5.56793">
        <ele>1118.4</ele>
        <time>2021-09-30T13:45:46Z</time>
      </trkpt>
      <trkpt lat="44.29004" lon="5.56771">
        <ele>1118.8</ele>
        <time>2021-09-30T13:46:04Z</time>
      </trkpt>
      <trkpt lat="44.29007" lon="5.56753">
        <ele>1118.4</ele>
        <time>2021-09-30T13:46:18Z</time>
      </trkpt>
      <trkpt lat="44.29009" lon="5.5674">
        <ele>1118.3</ele>
        <time>2021-09-30T13:46:31Z</time>
      </trkpt>
      <trkpt lat="44.29013" lon="5.56724">
        <ele>1118.1</ele>
        <time>2021-09-30T13:46:47Z</time>
      </trkpt>
      <trkpt lat="44.29015" lon="5.56704">
        <ele>1118.7</ele>
        <time>2021-09-30T13:47:04Z</time>
      </trkpt>
      <trkpt lat="44.29018" lon="5.56688">
        <ele>1119.4</ele>
        <time>2021-09-30T13:47:18Z</time>
      </trkpt>
      <trkpt lat="44.29022" lon="5.56671">
        <ele>1120.6</ele>
        <time>2021-09-30T13:47:36Z</time>
      </trkpt>
      <trkpt lat="44.29029" lon="5.56655">
        <ele>1124.1</ele>
        <time>2021-09-30T13:47:58Z</time>
      </trkpt>
      <trkpt lat="44.29036" lon="5.56642">
        <ele>1127.8</ele>
        <time>2021-09-30T13:48:20Z</time>
      </trkpt>
      <trkpt lat="44.29037" lon="5.56629">
        <ele>1130.9</ele>
        <time>2021-09-30T13:48:42Z</time>
      </trkpt>
      <trkpt lat="44.29034" lon="5.56616">
        <ele>1133.6</ele>
        <time>2021-09-30T13:49:08Z</time>
      </trkpt>
      <trkpt lat="44.29025" lon="5.56596">
        <ele>1136.7</ele>
        <time>2021-09-30T13:49:40Z</time>
      </trkpt>
      <trkpt lat="44.29024" lon="5.56592">
        <ele>1137.4</ele>
        <time>2021-09-30T13:49:45Z</time>
      </trkpt>
      <trkpt lat="44.29012" lon="5.56558">
        <ele>1137.8</ele>
        <time>2021-09-30T13:50:15Z</time>
      </trkpt>
      <trkpt lat="44.29014" lon="5.56534">
        <ele>1138.7</ele>
        <time>2021-09-30T13:50:37Z</time>
      </trkpt>
      <trkpt lat="44.29027" lon="5.56514">
        <ele>1141.5</ele>
        <time>2021-09-30T13:51:04Z</time>
      </trkpt>
      <trkpt lat="44.29039" lon="5.56487">
        <ele>1143.8</ele>
        <time>2021-09-30T13:51:32Z</time>
      </trkpt>
      <trkpt lat="44.29043" lon="5.56461">
        <ele>1143.7</ele>
        <time>2021-09-30T13:51:54Z</time>
      </trkpt>
      <trkpt lat="44.29044" lon="5.56459">
        <ele>1143.8</ele>
        <time>2021-09-30T13:51:57Z</time>
      </trkpt>
      <trkpt lat="44.29042" lon="5.56445">
        <ele>1143.2</ele>
        <time>2021-09-30T13:52:43Z</time>
      </trkpt>
      <trkpt lat="44.29044" lon="5.5645">
        <ele>1143.5</ele>
        <time>2021-09-30T13:53:46Z</time>
      </trkpt>
      <trkpt lat="44.29042" lon="5.56431">
        <ele>1142.9</ele>
        <time>2021-09-30T13:54:27Z</time>
      </trkpt>
      <trkpt lat="44.29037" lon="5.56401">
        <ele>1143</ele>
        <time>2021-09-30T13:54:52Z</time>
      </trkpt>
      <trkpt lat="44.2903" lon="5.56374">
        <ele>1144.9</ele>
        <time>2021-09-30T13:55:16Z</time>
      </trkpt>
      <trkpt lat="44.29021" lon="5.56346">
        <ele>1148.3</ele>
        <time>2021-09-30T13:55:42Z</time>
      </trkpt>
      <trkpt lat="44.29011" lon="5.56325">
        <ele>1152.4</ele>
        <time>2021-09-30T13:56:06Z</time>
      </trkpt>
      <trkpt lat="44.29002" lon="5.56301">
        <ele>1156.9</ele>
        <time>2021-09-30T13:56:29Z</time>
      </trkpt>
      <trkpt lat="44.28989" lon="5.56281">
        <ele>1157.6</ele>
        <time>2021-09-30T13:56:53Z</time>
      </trkpt>
      <trkpt lat="44.28983" lon="5.56256">
        <ele>1160.1</ele>
        <time>2021-09-30T13:57:18Z</time>
      </trkpt>
      <trkpt lat="44.28975" lon="5.56221">
        <ele>1165.1</ele>
        <time>2021-09-30T13:57:49Z</time>
      </trkpt>
      <trkpt lat="44.28973" lon="5.5621">
        <ele>1166.8</ele>
        <time>2021-09-30T13:58:09Z</time>
      </trkpt>
      <trkpt lat="44.28968" lon="5.56199">
        <ele>1168.2</ele>
        <time>2021-09-30T13:58:30Z</time>
      </trkpt>
      <trkpt lat="44.28968" lon="5.56186">
        <ele>1170.5</ele>
        <time>2021-09-30T13:58:51Z</time>
      </trkpt>
      <trkpt lat="44.28972" lon="5.56176">
        <ele>1172.7</ele>
        <time>2021-09-30T13:59:12Z</time>
      </trkpt>
      <trkpt lat="44.28972" lon="5.56159">
        <ele>1175.3</ele>
        <time>2021-09-30T13:59:36Z</time>
      </trkpt>
      <trkpt lat="44.28971" lon="5.56139">
        <ele>1177.9</ele>
        <time>2021-09-30T14:00:05Z</time>
      </trkpt>
      <trkpt lat="44.28974" lon="5.56121">
        <ele>1180.6</ele>
        <time>2021-09-30T14:00:32Z</time>
      </trkpt>
      <trkpt lat="44.28983" lon="5.56103">
        <ele>1184.1</ele>
        <time>2021-09-30T14:00:58Z</time>
      </trkpt>
      <trkpt lat="44.28988" lon="5.56084">
        <ele>1187.3</ele>
        <time>2021-09-30T14:01:24Z</time>
      </trkpt>
      <trkpt lat="44.28996" lon="5.5606">
        <ele>1191.9</ele>
        <time>2021-09-30T14:01:54Z</time>
      </trkpt>
      <trkpt lat="44.29006" lon="5.56036">
        <ele>1195</ele>
        <time>2021-09-30T14:02:26Z</time>
      </trkpt>
      <trkpt lat="44.29016" lon="5.5602">
        <ele>1195.7</ele>
        <time>2021-09-30T14:02:47Z</time>
      </trkpt>
      <trkpt lat="44.29022" lon="5.56001">
        <ele>1198.1</ele>
        <time>2021-09-30T14:03:14Z</time>
      </trkpt>
      <trkpt lat="44.29028" lon="5.5599">
        <ele>1197.8</ele>
        <time>2021-09-30T14:03:37Z</time>
      </trkpt>
      <trkpt lat="44.2903" lon="5.55979">
        <ele>1198.2</ele>
        <time>2021-09-30T14:03:57Z</time>
      </trkpt>
      <trkpt lat="44.29031" lon="5.55979">
        <ele>1198</ele>
        <time>2021-09-30T14:04:19Z</time>
      </trkpt>
      <trkpt lat="44.29028" lon="5.55979">
        <ele>1198.4</ele>
        <time>2021-09-30T14:04:54Z</time>
      </trkpt>
      <trkpt lat="44.29031" lon="5.5598">
        <ele>1198</ele>
        <time>2021-09-30T14:05:28Z</time>
      </trkpt>
      <trkpt lat="44.2903" lon="5.55981">
        <ele>1198</ele>
        <time>2021-09-30T14:06:20Z</time>
      </trkpt>
      <trkpt lat="44.2903" lon="5.55981">
        <ele>1198</ele>
        <time>2021-09-30T14:07:54Z</time>
      </trkpt>
      <trkpt lat="44.29031" lon="5.55962">
        <ele>1199.1</ele>
        <time>2021-09-30T14:08:14Z</time>
      </trkpt>
      <trkpt lat="44.29033" lon="5.55935">
        <ele>1200.6</ele>
        <time>2021-09-30T14:08:33Z</time>
      </trkpt>
      <trkpt lat="44.29038" lon="5.55915">
        <ele>1201.8</ele>
        <time>2021-09-30T14:08:47Z</time>
      </trkpt>
      <trkpt lat="44.29044" lon="5.55893">
        <ele>1200.9</ele>
        <time>2021-09-30T14:09:04Z</time>
      </trkpt>
      <trkpt lat="44.29053" lon="5.55873">
        <ele>1201.3</ele>
        <time>2021-09-30T14:09:20Z</time>
      </trkpt>
      <trkpt lat="44.29064" lon="5.55858">
        <ele>1203</ele>
        <time>2021-09-30T14:09:36Z</time>
      </trkpt>
      <trkpt lat="44.29078" lon="5.55841">
        <ele>1206.3</ele>
        <time>2021-09-30T14:09:58Z</time>
      </trkpt>
      <trkpt lat="44.29099" lon="5.55825">
        <ele>1206</ele>
        <time>2021-09-30T14:10:21Z</time>
      </trkpt>
      <trkpt lat="44.29115" lon="5.55813">
        <ele>1204.4</ele>
        <time>2021-09-30T14:10:42Z</time>
      </trkpt>
      <trkpt lat="44.29131" lon="5.55794">
        <ele>1203.5</ele>
        <time>2021-09-30T14:11:03Z</time>
      </trkpt>
      <trkpt lat="44.29137" lon="5.55771">
        <ele>1203.5</ele>
        <time>2021-09-30T14:11:23Z</time>
      </trkpt>
      <trkpt lat="44.29142" lon="5.55746">
        <ele>1203.9</ele>
        <time>2021-09-30T14:11:44Z</time>
      </trkpt>
      <trkpt lat="44.29148" lon="5.55718">
        <ele>1204.3</ele>
        <time>2021-09-30T14:12:02Z</time>
      </trkpt>
      <trkpt lat="44.29153" lon="5.55695">
        <ele>1204.9</ele>
        <time>2021-09-30T14:12:18Z</time>
      </trkpt>
      <trkpt lat="44.29155" lon="5.55667">
        <ele>1205.2</ele>
        <time>2021-09-30T14:12:36Z</time>
      </trkpt>
      <trkpt lat="44.29162" lon="5.55639">
        <ele>1208.8</ele>
        <time>2021-09-30T14:12:57Z</time>
      </trkpt>
      <trkpt lat="44.29172" lon="5.55628">
        <ele>1209.9</ele>
        <time>2021-09-30T14:13:15Z</time>
      </trkpt>
      <trkpt lat="44.29179" lon="5.55609">
        <ele>1211.3</ele>
        <time>2021-09-30T14:13:38Z</time>
      </trkpt>
      <trkpt lat="44.29187" lon="5.55593">
        <ele>1213</ele>
        <time>2021-09-30T14:14:01Z</time>
      </trkpt>
      <trkpt lat="44.29185" lon="5.55596">
        <ele>1212.6</ele>
        <time>2021-09-30T14:14:40Z</time>
      </trkpt>
      <trkpt lat="44.29188" lon="5.55586">
        <ele>1214.1</ele>
        <time>2021-09-30T14:15:44Z</time>
      </trkpt>
      <trkpt lat="44.29185" lon="5.55588">
        <ele>1213.9</ele>
        <time>2021-09-30T14:16:36Z</time>
      </trkpt>
      <trkpt lat="44.29186" lon="5.55586">
        <ele>1214.1</ele>
        <time>2021-09-30T14:17:33Z</time>
      </trkpt>
      <trkpt lat="44.29186" lon="5.5559">
        <ele>1213.5</ele>
        <time>2021-09-30T14:18:42Z</time>
      </trkpt>
      <trkpt lat="44.29188" lon="5.5559">
        <ele>1213.4</ele>
        <time>2021-09-30T14:20:09Z</time>
      </trkpt>
      <trkpt lat="44.29187" lon="5.55588">
        <ele>1213.8</ele>
        <time>2021-09-30T14:20:44Z</time>
      </trkpt>
      <trkpt lat="44.29193" lon="5.55577">
        <ele>1215.2</ele>
        <time>2021-09-30T14:21:07Z</time>
      </trkpt>
      <trkpt lat="44.29202" lon="5.55564">
        <ele>1217.2</ele>
        <time>2021-09-30T14:21:29Z</time>
      </trkpt>
      <trkpt lat="44.29208" lon="5.5555">
        <ele>1220</ele>
        <time>2021-09-30T14:21:52Z</time>
      </trkpt>
      <trkpt lat="44.29214" lon="5.55538">
        <ele>1222.8</ele>
        <time>2021-09-30T14:22:18Z</time>
      </trkpt>
      <trkpt lat="44.29221" lon="5.55526">
        <ele>1226.3</ele>
        <time>2021-09-30T14:22:45Z</time>
      </trkpt>
      <trkpt lat="44.29227" lon="5.55511">
        <ele>1230.8</ele>
        <time>2021-09-30T14:23:10Z</time>
      </trkpt>
      <trkpt lat="44.29234" lon="5.55499">
        <ele>1235.2</ele>
        <time>2021-09-30T14:23:36Z</time>
      </trkpt>
      <trkpt lat="44.2923" lon="5.55498">
        <ele>1234.3</ele>
        <time>2021-09-30T14:24:06Z</time>
      </trkpt>
      <trkpt lat="44.29231" lon="5.555">
        <ele>1234.4</ele>
        <time>2021-09-30T14:24:52Z</time>
      </trkpt>
      <trkpt lat="44.29231" lon="5.55482">
        <ele>1235.7</ele>
        <time>2021-09-30T14:25:16Z</time>
      </trkpt>
      <trkpt lat="44.2923" lon="5.55465">
        <ele>1236.7</ele>
        <time>2021-09-30T14:25:36Z</time>
      </trkpt>
      <trkpt lat="44.29231" lon="5.55447">
        <ele>1238.2</ele>
        <time>2021-09-30T14:25:53Z</time>
      </trkpt>
      <trkpt lat="44.2923" lon="5.55439">
        <ele>1238.5</ele>
        <time>2021-09-30T14:26:20Z</time>
      </trkpt>
      <trkpt lat="44.2923" lon="5.55425">
        <ele>1239.5</ele>
        <time>2021-09-30T14:26:44Z</time>
      </trkpt>
      <trkpt lat="44.29239" lon="5.55409">
        <ele>1243.3</ele>
        <time>2021-09-30T14:26:59Z</time>
      </trkpt>
      <trkpt lat="44.29242" lon="5.55398">
        <ele>1244.5</ele>
        <time>2021-09-30T14:27:08Z</time>
      </trkpt>
    </trkseg>
  </trk>
</gpx>